DAL131 KMSP-EHAM
Flight info
| Callsign | DAL131 |
|---|---|
| Flight time | 7h 15m |
| Altitude | 35000 |
| Route | WLSTN7 WLSTN DCT CMX DCT 51N080W/N0483F370 54N070W DCT AVUTI/M085F380 NATP GOMUP/N0484F380 NATP GINGA/N0483F390 DCT ERKIT N110 DOLAS L603 LAMSO |
| Aircraft | A359/H-SDE2E3GHIJ3J4J5LM1ORWXY/LB1D1 |
Departure
| Time | 2026-04-26 21:31 |
|---|---|
| Airport | Minneapolis–Saint Paul International Airport / Wold–Chamberlain Field (KMSP) |
Arrival
| Time | 2026-04-27 04:46 |
|---|---|
| Airport | Amsterdam Airport Schiphol (EHAM) |
| Time | Latitude | Longitude | Altitude | Speed | Heading |
|---|---|---|---|---|---|
| 2026-04-26 20:45 | 44.88326 | -93.21646 | 844 ft | 0 kts | 50° |
| 2026-04-26 21:22 | 44.88312 | -93.21669 | 832 ft | 4 kts | 50° |
| 2026-04-26 21:22 | 44.88299 | -93.21692 | 832 ft | 4 kts | 49° |
| 2026-04-26 21:22 | 44.88280 | -93.21719 | 832 ft | 4 kts | 31° |
| 2026-04-26 21:23 | 44.88249 | -93.21696 | 831 ft | 7 kts | 301° |
| 2026-04-26 21:23 | 44.88240 | -93.21673 | 843 ft | 2 kts | 300° |
| 2026-04-26 21:25 | 44.88240 | -93.21674 | 842 ft | 1 kts | 300° |
| 2026-04-26 21:26 | 44.88255 | -93.21710 | 831 ft | 8 kts | 300° |
| 2026-04-26 21:26 | 44.88296 | -93.21807 | 833 ft | 15 kts | 301° |
| 2026-04-26 21:26 | 44.88372 | -93.21931 | 837 ft | 18 kts | 320° |
| 2026-04-26 21:26 | 44.88475 | -93.22037 | 838 ft | 18 kts | 321° |
| 2026-04-26 21:27 | 44.88552 | -93.22172 | 833 ft | 14 kts | 320° |
| 2026-04-26 21:27 | 44.88631 | -93.22145 | 831 ft | 12 kts | 32° |
| 2026-04-26 21:27 | 44.88691 | -93.22075 | 835 ft | 10 kts | 47° |
| 2026-04-26 21:27 | 44.88736 | -93.22009 | 836 ft | 8 kts | 43° |
| 2026-04-26 21:28 | 44.88779 | -93.21968 | 835 ft | 7 kts | 19° |
| 2026-04-26 21:28 | 44.88832 | -93.21965 | 841 ft | 9 kts | 1° |
| 2026-04-26 21:28 | 44.88905 | -93.21965 | 841 ft | 11 kts | 355° |
| 2026-04-26 21:28 | 44.88973 | -93.22030 | 838 ft | 13 kts | 307° |
| 2026-04-26 21:29 | 44.89024 | -93.22142 | 842 ft | 13 kts | 301° |
| 2026-04-26 21:29 | 44.89083 | -93.22220 | 845 ft | 11 kts | 347° |
| 2026-04-26 21:29 | 44.89156 | -93.22194 | 841 ft | 11 kts | 27° |
| 2026-04-26 21:29 | 44.89224 | -93.22139 | 844 ft | 12 kts | 29° |
| 2026-04-26 21:30 | 44.89266 | -93.22043 | 843 ft | 11 kts | 98° |
| 2026-04-26 21:30 | 44.89250 | -93.21989 | 840 ft | 0 kts | 120° |
| 2026-04-26 21:30 | 44.89226 | -93.21933 | 835 ft | 28 kts | 121° |
| 2026-04-26 21:30 | 44.89009 | -93.21432 | 836 ft | 89 kts | 122° |
| 2026-04-26 21:31 | 44.88593 | -93.20474 | 828 ft | 139 kts | 121° |
| 2026-04-26 21:31 | 44.88104 | -93.19266 | 1348 ft | 135 kts | 115° |
| 2026-04-26 21:31 | 44.87669 | -93.18093 | 1888 ft | 136 kts | 115° |
| 2026-04-26 21:31 | 44.87256 | -93.16898 | 2227 ft | 140 kts | 106° |
| 2026-04-26 21:32 | 44.87239 | -93.15511 | 2528 ft | 145 kts | 85° |
| 2026-04-26 21:32 | 44.87291 | -93.14057 | 2747 ft | 157 kts | 81° |
| 2026-04-26 21:32 | 44.87924 | -93.12712 | 2865 ft | 178 kts | 42° |
| 2026-04-26 21:32 | 44.88929 | -93.11611 | 3174 ft | 189 kts | 43° |
| 2026-04-26 21:33 | 44.89961 | -93.10370 | 3436 ft | 202 kts | 45° |
| 2026-04-26 21:33 | 44.91041 | -93.09008 | 3651 ft | 215 kts | 46° |
| 2026-04-26 21:33 | 44.92190 | -93.07531 | 3892 ft | 232 kts | 46° |
| 2026-04-26 21:33 | 44.93410 | -93.05961 | 4140 ft | 249 kts | 46° |
| 2026-04-26 21:34 | 44.94732 | -93.04287 | 4512 ft | 261 kts | 45° |
| 2026-04-26 21:34 | 44.96111 | -93.02552 | 4973 ft | 268 kts | 45° |
| 2026-04-26 21:34 | 44.97511 | -93.00794 | 5576 ft | 270 kts | 46° |
| 2026-04-26 21:34 | 44.98925 | -92.98991 | 6026 ft | 278 kts | 46° |
| 2026-04-26 21:35 | 45.00374 | -92.97124 | 6489 ft | 285 kts | 46° |
| 2026-04-26 21:35 | 45.01858 | -92.95217 | 6969 ft | 290 kts | 46° |
| 2026-04-26 21:35 | 45.03357 | -92.93290 | 7481 ft | 294 kts | 46° |
| 2026-04-26 21:35 | 45.04861 | -92.91358 | 8001 ft | 298 kts | 46° |
| 2026-04-26 21:36 | 45.06402 | -92.89376 | 8515 ft | 301 kts | 46° |
| 2026-04-26 21:36 | 45.07967 | -92.87359 | 9006 ft | 307 kts | 45° |
| 2026-04-26 21:36 | 45.09553 | -92.85316 | 9533 ft | 310 kts | 45° |
| 2026-04-26 21:36 | 45.11158 | -92.83247 | 10048 ft | 314 kts | 45° |
| 2026-04-26 21:37 | 45.12795 | -92.81135 | 10390 ft | 324 kts | 45° |
| 2026-04-26 21:37 | 45.14496 | -92.78936 | 10626 ft | 338 kts | 44° |
| 2026-04-26 21:37 | 45.16264 | -92.76650 | 10882 ft | 351 kts | 44° |
| 2026-04-26 21:37 | 45.18074 | -92.74308 | 11119 ft | 363 kts | 44° |
| 2026-04-26 21:38 | 45.19964 | -92.71863 | 11368 ft | 374 kts | 44° |
| 2026-04-26 21:38 | 45.21914 | -92.69337 | 11606 ft | 384 kts | 44° |
| 2026-04-26 21:38 | 45.23852 | -92.66663 | 11810 ft | 393 kts | 51° |
| 2026-04-26 21:38 | 45.25290 | -92.63373 | 12120 ft | 394 kts | 71° |
| 2026-04-26 21:39 | 45.26018 | -92.59634 | 12500 ft | 394 kts | 81° |
| 2026-04-26 21:39 | 45.26563 | -92.55802 | 12875 ft | 398 kts | 82° |
| 2026-04-26 21:39 | 45.27096 | -92.51930 | 13250 ft | 402 kts | 82° |
| 2026-04-26 21:39 | 45.27631 | -92.48082 | 13660 ft | 404 kts | 81° |
| 2026-04-26 21:40 | 45.28183 | -92.44144 | 14042 ft | 407 kts | 81° |
| 2026-04-26 21:40 | 45.28737 | -92.40192 | 14421 ft | 410 kts | 81° |
| 2026-04-26 21:40 | 45.29297 | -92.36210 | 14800 ft | 412 kts | 81° |
| 2026-04-26 21:40 | 45.29858 | -92.32209 | 15178 ft | 414 kts | 81° |
| 2026-04-26 21:41 | 45.30422 | -92.28185 | 15551 ft | 417 kts | 81° |
| 2026-04-26 21:41 | 45.30990 | -92.24130 | 15921 ft | 420 kts | 81° |
| 2026-04-26 21:41 | 45.31557 | -92.20060 | 16304 ft | 422 kts | 81° |
| 2026-04-26 21:41 | 45.32119 | -92.16017 | 16659 ft | 424 kts | 81° |
| 2026-04-26 21:42 | 45.32692 | -92.11886 | 17032 ft | 427 kts | 81° |
| 2026-04-26 21:42 | 45.33265 | -92.07741 | 17401 ft | 429 kts | 81° |
| 2026-04-26 21:42 | 45.33840 | -92.03570 | 17756 ft | 432 kts | 81° |
| 2026-04-26 21:42 | 45.34418 | -91.99370 | 18121 ft | 434 kts | 81° |
| 2026-04-26 21:43 | 45.34996 | -91.95150 | 18442 ft | 437 kts | 81° |
| 2026-04-26 21:43 | 45.35578 | -91.90894 | 18719 ft | 440 kts | 81° |
| 2026-04-26 21:43 | 45.36162 | -91.86613 | 18978 ft | 443 kts | 81° |
| 2026-04-26 21:43 | 45.36748 | -91.82299 | 19261 ft | 445 kts | 81° |
| 2026-04-26 21:44 | 45.37336 | -91.77965 | 19516 ft | 449 kts | 81° |
| 2026-04-26 21:44 | 45.37919 | -91.73647 | 19748 ft | 452 kts | 81° |
| 2026-04-26 21:44 | 45.38513 | -91.69240 | 20033 ft | 454 kts | 81° |
| 2026-04-26 21:44 | 45.39107 | -91.64819 | 20314 ft | 457 kts | 81° |
| 2026-04-26 21:45 | 45.39703 | -91.60372 | 20586 ft | 459 kts | 81° |
| 2026-04-26 21:45 | 45.40301 | -91.55892 | 20853 ft | 462 kts | 81° |
| 2026-04-26 21:45 | 45.40898 | -91.51400 | 21156 ft | 463 kts | 80° |
| 2026-04-26 21:45 | 45.41496 | -91.46890 | 21470 ft | 464 kts | 80° |
| 2026-04-26 21:46 | 45.42087 | -91.42419 | 21738 ft | 467 kts | 80° |
| 2026-04-26 21:46 | 45.42688 | -91.37864 | 22003 ft | 470 kts | 80° |
| 2026-04-26 21:46 | 45.43290 | -91.33280 | 22274 ft | 472 kts | 80° |
| 2026-04-26 21:46 | 45.43893 | -91.28678 | 22520 ft | 474 kts | 80° |
| 2026-04-26 21:47 | 45.44497 | -91.24051 | 22789 ft | 477 kts | 80° |
| 2026-04-26 21:47 | 45.45102 | -91.19401 | 23048 ft | 479 kts | 80° |
| 2026-04-26 21:47 | 45.45708 | -91.14722 | 23314 ft | 481 kts | 80° |
| 2026-04-26 21:47 | 45.46319 | -91.10049 | 23675 ft | 480 kts | 79° |
| 2026-04-26 21:48 | 45.47172 | -91.05441 | 23887 ft | 483 kts | 70° |
| 2026-04-26 21:48 | 45.48551 | -91.01146 | 24084 ft | 484 kts | 58° |
| 2026-04-26 21:48 | 45.50494 | -90.97243 | 24296 ft | 483 kts | 47° |
| 2026-04-26 21:48 | 45.52757 | -90.93684 | 24516 ft | 484 kts | 44° |
| 2026-04-26 21:49 | 45.55117 | -90.90252 | 24736 ft | 486 kts | 42° |
| 2026-04-26 21:49 | 45.57529 | -90.86862 | 24963 ft | 487 kts | 41° |
| 2026-04-26 21:49 | 45.59957 | -90.83477 | 25155 ft | 490 kts | 41° |
| 2026-04-26 21:49 | 45.62397 | -90.80058 | 25387 ft | 492 kts | 41° |
| 2026-04-26 21:50 | 45.64798 | -90.76663 | 25614 ft | 493 kts | 41° |
| 2026-04-26 21:50 | 45.67230 | -90.73194 | 25916 ft | 494 kts | 42° |
| 2026-04-26 21:50 | 45.69659 | -90.69710 | 26136 ft | 496 kts | 42° |
| 2026-04-26 21:50 | 45.72093 | -90.66205 | 26330 ft | 498 kts | 42° |
| 2026-04-26 21:51 | 45.74541 | -90.62670 | 26534 ft | 500 kts | 42° |
| 2026-04-26 21:51 | 45.76992 | -90.59128 | 26767 ft | 502 kts | 42° |
| 2026-04-26 21:51 | 45.79457 | -90.55559 | 26984 ft | 505 kts | 41° |
| 2026-04-26 21:51 | 45.81934 | -90.51969 | 27195 ft | 507 kts | 41° |
| 2026-04-26 21:52 | 45.84387 | -90.48410 | 27425 ft | 509 kts | 41° |
| 2026-04-26 21:52 | 45.86880 | -90.44788 | 27653 ft | 511 kts | 41° |
| 2026-04-26 21:52 | 45.89386 | -90.41143 | 27892 ft | 513 kts | 41° |
| 2026-04-26 21:52 | 45.91896 | -90.37488 | 28144 ft | 515 kts | 41° |
| 2026-04-26 21:53 | 45.94411 | -90.33818 | 28467 ft | 515 kts | 41° |
| 2026-04-26 21:53 | 45.96926 | -90.30146 | 28687 ft | 517 kts | 41° |
| 2026-04-26 21:53 | 45.99459 | -90.26442 | 28880 ft | 521 kts | 41° |
| 2026-04-26 21:53 | 46.02002 | -90.22720 | 29088 ft | 523 kts | 41° |
| 2026-04-26 21:54 | 46.04553 | -90.18979 | 29336 ft | 525 kts | 41° |
| 2026-04-26 21:54 | 46.07116 | -90.15215 | 29534 ft | 527 kts | 41° |
| 2026-04-26 21:54 | 46.09652 | -90.11485 | 29759 ft | 529 kts | 41° |
| 2026-04-26 21:54 | 46.12233 | -90.07682 | 29967 ft | 531 kts | 41° |
| 2026-04-26 21:55 | 46.14822 | -90.03864 | 30177 ft | 533 kts | 41° |
| 2026-04-26 21:55 | 46.17418 | -90.00031 | 30377 ft | 535 kts | 41° |
| 2026-04-26 21:55 | 46.20024 | -89.96176 | 30578 ft | 537 kts | 41° |
| 2026-04-26 21:55 | 46.22626 | -89.92320 | 30882 ft | 536 kts | 41° |
| 2026-04-26 21:56 | 46.25222 | -89.88465 | 31182 ft | 535 kts | 41° |
| 2026-04-26 21:56 | 46.27819 | -89.84606 | 31452 ft | 535 kts | 41° |
| 2026-04-26 21:56 | 46.30415 | -89.80743 | 31736 ft | 535 kts | 41° |
| 2026-04-26 21:56 | 46.32973 | -89.76932 | 32024 ft | 535 kts | 41° |
| 2026-04-26 21:57 | 46.35559 | -89.73073 | 32300 ft | 534 kts | 41° |
| 2026-04-26 21:57 | 46.38148 | -89.69204 | 32562 ft | 535 kts | 41° |
| 2026-04-26 21:57 | 46.40739 | -89.65329 | 32750 ft | 536 kts | 41° |
| 2026-04-26 21:57 | 46.43333 | -89.61443 | 33043 ft | 536 kts | 41° |
| 2026-04-26 21:58 | 46.45920 | -89.57559 | 33321 ft | 535 kts | 41° |
| 2026-04-26 21:58 | 46.48504 | -89.53676 | 33589 ft | 535 kts | 41° |
| 2026-04-26 21:58 | 46.51084 | -89.49792 | 33859 ft | 535 kts | 41° |
| 2026-04-26 21:58 | 46.53664 | -89.45902 | 34124 ft | 535 kts | 41° |
| 2026-04-26 21:59 | 46.56206 | -89.42065 | 34360 ft | 534 kts | 41° |
| 2026-04-26 21:59 | 46.58778 | -89.38176 | 34652 ft | 533 kts | 41° |
| 2026-04-26 21:59 | 46.61344 | -89.34289 | 34898 ft | 532 kts | 42° |
| 2026-04-26 21:59 | 46.63903 | -89.30409 | 35107 ft | 532 kts | 42° |
| 2026-04-26 22:00 | 46.69058 | -89.22584 | 35163 ft | 538 kts | 42° |
| 2026-04-26 22:00 | 46.74185 | -89.14771 | 35159 ft | 536 kts | 42° |
| 2026-04-26 22:01 | 46.79320 | -89.06917 | 35154 ft | 534 kts | 42° |
| 2026-04-26 22:01 | 46.84449 | -88.99053 | 35158 ft | 534 kts | 42° |
| 2026-04-26 22:02 | 46.89571 | -88.91178 | 35157 ft | 535 kts | 42° |
| 2026-04-26 22:02 | 46.94687 | -88.83288 | 35141 ft | 535 kts | 42° |
| 2026-04-26 22:03 | 46.99770 | -88.75430 | 35154 ft | 535 kts | 42° |
| 2026-04-26 22:03 | 47.04878 | -88.67507 | 35150 ft | 535 kts | 42° |
| 2026-04-26 22:04 | 47.09979 | -88.59571 | 35159 ft | 535 kts | 42° |
| 2026-04-26 22:04 | 47.15076 | -88.51617 | 35148 ft | 535 kts | 42° |
| 2026-04-26 22:05 | 47.19823 | -88.43253 | 35149 ft | 538 kts | 48° |
| 2026-04-26 22:05 | 47.24419 | -88.34546 | 35134 ft | 539 kts | 49° |
| 2026-04-26 22:06 | 47.28970 | -88.25799 | 35155 ft | 537 kts | 49° |
| 2026-04-26 22:06 | 47.33513 | -88.17048 | 35164 ft | 537 kts | 49° |
| 2026-04-26 22:07 | 47.38053 | -88.08296 | 35192 ft | 537 kts | 49° |
| 2026-04-26 22:07 | 47.42560 | -87.99589 | 35166 ft | 538 kts | 49° |
| 2026-04-26 22:08 | 47.47093 | -87.90803 | 35177 ft | 538 kts | 49° |
| 2026-04-26 22:08 | 47.51614 | -87.82010 | 35180 ft | 536 kts | 49° |
| 2026-04-26 22:09 | 47.56120 | -87.73217 | 35184 ft | 536 kts | 49° |
| 2026-04-26 22:09 | 47.60590 | -87.64468 | 35186 ft | 537 kts | 49° |
| 2026-04-26 22:10 | 47.65093 | -87.55628 | 35192 ft | 537 kts | 49° |
| 2026-04-26 22:10 | 47.69588 | -87.46774 | 35195 ft | 537 kts | 49° |
| 2026-04-26 22:11 | 47.74071 | -87.37912 | 35194 ft | 536 kts | 49° |
| 2026-04-26 22:11 | 47.78514 | -87.29102 | 35213 ft | 536 kts | 49° |
| 2026-04-26 22:12 | 47.82986 | -87.20207 | 35206 ft | 537 kts | 49° |
| 2026-04-26 22:12 | 47.87452 | -87.11295 | 35205 ft | 537 kts | 49° |
| 2026-04-26 22:13 | 47.91915 | -87.02359 | 35212 ft | 537 kts | 49° |
| 2026-04-26 22:13 | 47.96338 | -86.93473 | 35209 ft | 537 kts | 49° |
| 2026-04-26 22:14 | 48.00784 | -86.84513 | 35208 ft | 538 kts | 49° |
| 2026-04-26 22:14 | 48.05236 | -86.75511 | 35213 ft | 539 kts | 49° |
| 2026-04-26 22:15 | 48.09682 | -86.66490 | 35216 ft | 539 kts | 49° |
| 2026-04-26 22:15 | 48.14089 | -86.57520 | 35212 ft | 539 kts | 49° |
| 2026-04-26 22:16 | 48.18524 | -86.48463 | 35229 ft | 539 kts | 49° |
| 2026-04-26 22:16 | 48.22957 | -86.39380 | 35214 ft | 541 kts | 49° |
| 2026-04-26 22:17 | 48.27394 | -86.30258 | 35216 ft | 541 kts | 49° |
| 2026-04-26 22:17 | 48.31799 | -86.21169 | 35213 ft | 541 kts | 49° |
| 2026-04-26 22:18 | 48.36220 | -86.12017 | 35199 ft | 541 kts | 49° |
| 2026-04-26 22:18 | 48.40636 | -86.02843 | 35212 ft | 541 kts | 49° |
| 2026-04-26 22:19 | 48.45047 | -85.93652 | 35214 ft | 542 kts | 49° |
| 2026-04-26 22:19 | 48.49420 | -85.84508 | 35208 ft | 542 kts | 49° |
| 2026-04-26 22:20 | 48.53108 | -85.76774 | 35209 ft | 542 kts | 49° |
| 2026-04-26 22:20 | 48.58210 | -85.66036 | 35245 ft | 542 kts | 49° |
| 2026-04-26 22:21 | 48.62582 | -85.56796 | 35212 ft | 539 kts | 49° |
| 2026-04-26 22:21 | 48.66928 | -85.47582 | 35212 ft | 538 kts | 49° |
| 2026-04-26 22:22 | 48.71238 | -85.38416 | 35212 ft | 538 kts | 49° |
| 2026-04-26 22:22 | 48.75571 | -85.29172 | 35214 ft | 538 kts | 49° |
| 2026-04-26 22:23 | 48.79895 | -85.19916 | 35215 ft | 538 kts | 50° |
| 2026-04-26 22:23 | 48.84213 | -85.10636 | 35218 ft | 538 kts | 50° |
| 2026-04-26 22:24 | 48.88524 | -85.01337 | 35216 ft | 538 kts | 50° |
| 2026-04-26 22:24 | 48.92800 | -84.92085 | 35213 ft | 538 kts | 50° |
| 2026-04-26 22:25 | 48.97099 | -84.82749 | 35241 ft | 539 kts | 50° |
| 2026-04-26 22:25 | 49.01390 | -84.73401 | 35212 ft | 538 kts | 50° |
| 2026-04-26 22:26 | 49.05832 | -84.63685 | 35209 ft | 536 kts | 50° |
| 2026-04-26 22:26 | 49.10078 | -84.54366 | 35207 ft | 535 kts | 50° |
| 2026-04-26 22:27 | 49.14285 | -84.45103 | 35209 ft | 535 kts | 50° |
| 2026-04-26 22:27 | 49.18517 | -84.35752 | 35217 ft | 535 kts | 50° |
| 2026-04-26 22:28 | 49.22743 | -84.26383 | 35217 ft | 535 kts | 50° |
| 2026-04-26 22:28 | 49.26955 | -84.17010 | 35214 ft | 533 kts | 51° |
| 2026-04-26 22:29 | 49.31110 | -84.07727 | 35221 ft | 531 kts | 51° |
| 2026-04-26 22:29 | 49.35277 | -83.98391 | 35221 ft | 531 kts | 51° |
| 2026-04-26 22:30 | 49.39438 | -83.89037 | 35224 ft | 532 kts | 51° |
| 2026-04-26 22:30 | 49.43606 | -83.79634 | 35223 ft | 533 kts | 51° |
| 2026-04-26 22:31 | 49.47738 | -83.70277 | 35212 ft | 532 kts | 52° |
| 2026-04-26 22:31 | 49.51869 | -83.60884 | 35218 ft | 529 kts | 52° |
| 2026-04-26 22:32 | 49.55985 | -83.51496 | 35218 ft | 529 kts | 52° |
| 2026-04-26 22:32 | 49.60097 | -83.42088 | 35220 ft | 531 kts | 52° |
| 2026-04-26 22:33 | 49.66249 | -83.27947 | 35222 ft | 532 kts | 52° |
| 2026-04-26 22:34 | 49.70358 | -83.18459 | 35214 ft | 530 kts | 52° |
| 2026-04-26 22:34 | 49.74437 | -83.09002 | 35219 ft | 528 kts | 52° |
| 2026-04-26 22:35 | 49.78479 | -82.99604 | 35223 ft | 529 kts | 53° |
| 2026-04-26 22:35 | 49.82554 | -82.90099 | 35225 ft | 531 kts | 53° |
| 2026-04-26 22:36 | 49.86626 | -82.80560 | 35215 ft | 531 kts | 53° |
| 2026-04-26 22:36 | 49.90692 | -82.71001 | 35205 ft | 531 kts | 53° |
| 2026-04-26 22:37 | 49.94709 | -82.61521 | 35220 ft | 527 kts | 53° |
| 2026-04-26 22:37 | 49.98726 | -82.52008 | 35225 ft | 528 kts | 54° |
| 2026-04-26 22:38 | 50.02753 | -82.42443 | 35216 ft | 529 kts | 54° |
| 2026-04-26 22:38 | 50.06773 | -82.32854 | 35218 ft | 529 kts | 54° |
| 2026-04-26 22:39 | 50.10785 | -82.23251 | 35216 ft | 529 kts | 54° |
| 2026-04-26 22:39 | 50.14757 | -82.13708 | 35216 ft | 527 kts | 54° |
| 2026-04-26 22:40 | 50.18729 | -82.04130 | 35218 ft | 526 kts | 55° |
| 2026-04-26 22:40 | 50.22697 | -81.94529 | 35213 ft | 526 kts | 55° |
| 2026-04-26 22:41 | 50.26657 | -81.84911 | 35214 ft | 527 kts | 55° |
| 2026-04-26 22:41 | 50.30585 | -81.75334 | 35210 ft | 527 kts | 55° |
| 2026-04-26 22:42 | 50.34532 | -81.65679 | 35196 ft | 526 kts | 56° |
| 2026-04-26 22:42 | 50.38462 | -81.56029 | 35205 ft | 524 kts | 56° |
| 2026-04-26 22:43 | 50.42370 | -81.46395 | 35205 ft | 524 kts | 56° |
| 2026-04-26 22:43 | 50.46248 | -81.36801 | 35202 ft | 524 kts | 56° |
| 2026-04-26 22:44 | 50.50141 | -81.27133 | 35204 ft | 524 kts | 56° |
| 2026-04-26 22:44 | 50.54031 | -81.17439 | 35214 ft | 524 kts | 56° |
| 2026-04-26 22:45 | 50.57900 | -81.07761 | 35210 ft | 521 kts | 58° |
| 2026-04-26 22:45 | 50.61716 | -80.98179 | 35213 ft | 519 kts | 58° |
| 2026-04-26 22:46 | 50.65544 | -80.88532 | 35215 ft | 519 kts | 58° |
| 2026-04-26 22:46 | 50.69363 | -80.78870 | 35213 ft | 519 kts | 58° |
| 2026-04-26 22:47 | 50.73176 | -80.69189 | 35208 ft | 519 kts | 58° |
| 2026-04-26 22:47 | 50.76954 | -80.59561 | 35211 ft | 519 kts | 58° |
| 2026-04-26 22:48 | 50.80743 | -80.49877 | 35205 ft | 516 kts | 58° |
| 2026-04-26 22:48 | 50.84501 | -80.40223 | 35205 ft | 515 kts | 58° |
| 2026-04-26 22:49 | 50.88253 | -80.30549 | 35204 ft | 515 kts | 58° |
| 2026-04-26 22:49 | 50.91997 | -80.20863 | 35205 ft | 516 kts | 58° |
| 2026-04-26 22:50 | 50.95712 | -80.11224 | 35209 ft | 516 kts | 58° |
| 2026-04-26 22:50 | 50.99442 | -80.01499 | 35208 ft | 516 kts | 58° |
| 2026-04-26 22:51 | 51.03120 | -79.91687 | 35508 ft | 516 kts | 60° |
| 2026-04-26 22:51 | 51.04902 | -79.86759 | 35797 ft | 514 kts | 60° |
| 2026-04-26 22:51 | 51.06672 | -79.81830 | 36019 ft | 513 kts | 60° |
| 2026-04-26 22:51 | 51.08418 | -79.76962 | 36237 ft | 513 kts | 60° |
| 2026-04-26 22:52 | 51.10187 | -79.72036 | 36419 ft | 513 kts | 60° |
| 2026-04-26 22:52 | 51.11961 | -79.67104 | 36625 ft | 513 kts | 60° |
| 2026-04-26 22:52 | 51.13735 | -79.62177 | 36787 ft | 514 kts | 60° |
| 2026-04-26 22:52 | 51.15512 | -79.57238 | 36968 ft | 514 kts | 60° |
| 2026-04-26 22:53 | 51.17285 | -79.52298 | 37146 ft | 513 kts | 60° |
| 2026-04-26 22:53 | 51.20834 | -79.42388 | 37207 ft | 514 kts | 61° |
| 2026-04-26 22:54 | 51.24345 | -79.32544 | 37208 ft | 514 kts | 61° |
| 2026-04-26 22:54 | 51.27873 | -79.22615 | 37208 ft | 514 kts | 61° |
| 2026-04-26 22:55 | 51.31391 | -79.12672 | 37216 ft | 514 kts | 62° |
| 2026-04-26 22:55 | 51.34906 | -79.02699 | 37208 ft | 515 kts | 62° |
| 2026-04-26 22:56 | 51.38395 | -78.92760 | 37190 ft | 516 kts | 62° |
| 2026-04-26 22:56 | 51.41900 | -78.82737 | 37211 ft | 515 kts | 62° |
| 2026-04-26 22:57 | 51.45392 | -78.72710 | 37215 ft | 515 kts | 62° |
| 2026-04-26 22:57 | 51.48880 | -78.62658 | 37214 ft | 515 kts | 62° |
| 2026-04-26 22:58 | 51.52357 | -78.52595 | 37218 ft | 516 kts | 62° |
| 2026-04-26 22:58 | 51.55807 | -78.42570 | 37214 ft | 516 kts | 62° |
| 2026-04-26 22:59 | 51.59265 | -78.32479 | 37213 ft | 515 kts | 62° |
| 2026-04-26 22:59 | 51.62712 | -78.22381 | 37214 ft | 514 kts | 62° |
| 2026-04-26 23:00 | 51.65565 | -78.13995 | 37226 ft | 514 kts | 62° |
| 2026-04-26 23:00 | 51.69547 | -78.02240 | 37221 ft | 514 kts | 62° |
| 2026-04-26 23:01 | 51.72965 | -77.92107 | 37218 ft | 514 kts | 62° |
| 2026-04-26 23:01 | 51.76371 | -77.81968 | 37220 ft | 514 kts | 62° |
| 2026-04-26 23:02 | 51.79195 | -77.73528 | 37218 ft | 513 kts | 62° |
| 2026-04-26 23:02 | 51.83114 | -77.61771 | 37220 ft | 510 kts | 62° |
| 2026-04-26 23:03 | 51.86466 | -77.51670 | 37226 ft | 510 kts | 63° |
| 2026-04-26 23:03 | 51.89271 | -77.43185 | 37220 ft | 510 kts | 63° |
| 2026-04-26 23:04 | 51.92586 | -77.33119 | 37226 ft | 510 kts | 63° |
| 2026-04-26 23:04 | 51.95914 | -77.22973 | 37225 ft | 510 kts | 63° |
| 2026-04-26 23:05 | 51.99231 | -77.12818 | 37216 ft | 508 kts | 63° |
| 2026-04-26 23:05 | 52.02526 | -77.02691 | 37217 ft | 507 kts | 63° |
| 2026-04-26 23:06 | 52.05790 | -76.92621 | 37220 ft | 507 kts | 63° |
| 2026-04-26 23:06 | 52.09064 | -76.82473 | 37218 ft | 507 kts | 63° |
| 2026-04-26 23:07 | 52.12332 | -76.72301 | 37219 ft | 507 kts | 63° |
| 2026-04-26 23:07 | 52.15590 | -76.62119 | 37219 ft | 507 kts | 64° |
| 2026-04-26 23:08 | 52.18815 | -76.52002 | 37224 ft | 506 kts | 64° |
| 2026-04-26 23:08 | 52.22044 | -76.41829 | 37221 ft | 505 kts | 64° |
| 2026-04-26 23:09 | 52.25261 | -76.31651 | 37222 ft | 505 kts | 64° |
| 2026-04-26 23:09 | 52.28474 | -76.21439 | 37224 ft | 505 kts | 64° |
| 2026-04-26 23:10 | 52.31653 | -76.11295 | 37224 ft | 505 kts | 64° |
| 2026-04-26 23:10 | 52.34849 | -76.01055 | 37227 ft | 505 kts | 64° |
| 2026-04-26 23:11 | 52.38032 | -75.90817 | 37227 ft | 504 kts | 64° |
| 2026-04-26 23:11 | 52.41196 | -75.80593 | 37228 ft | 503 kts | 64° |
| 2026-04-26 23:12 | 52.44329 | -75.70425 | 37229 ft | 504 kts | 65° |
| 2026-04-26 23:12 | 52.47478 | -75.60165 | 37233 ft | 504 kts | 65° |
| 2026-04-26 23:13 | 52.50615 | -75.49897 | 37234 ft | 504 kts | 65° |
| 2026-04-26 23:13 | 52.53746 | -75.39608 | 37230 ft | 504 kts | 65° |
| 2026-04-26 23:14 | 52.56866 | -75.29311 | 37229 ft | 503 kts | 65° |
| 2026-04-26 23:14 | 52.59951 | -75.19085 | 37228 ft | 502 kts | 65° |
| 2026-04-26 23:15 | 52.63046 | -75.08784 | 37229 ft | 502 kts | 65° |
| 2026-04-26 23:15 | 52.66134 | -74.98461 | 37227 ft | 502 kts | 65° |
| 2026-04-26 23:16 | 52.69208 | -74.88136 | 37227 ft | 502 kts | 66° |
| 2026-04-26 23:16 | 52.72258 | -74.77853 | 37227 ft | 502 kts | 66° |
| 2026-04-26 23:17 | 52.75315 | -74.67506 | 37219 ft | 502 kts | 67° |
| 2026-04-26 23:17 | 52.78367 | -74.57126 | 37225 ft | 503 kts | 67° |
| 2026-04-26 23:18 | 52.81415 | -74.46715 | 37223 ft | 503 kts | 67° |
| 2026-04-26 23:18 | 52.84430 | -74.36364 | 37223 ft | 503 kts | 67° |
| 2026-04-26 23:19 | 52.87457 | -74.25928 | 37229 ft | 503 kts | 67° |
| 2026-04-26 23:19 | 52.90475 | -74.15480 | 37230 ft | 503 kts | 67° |
| 2026-04-26 23:20 | 52.93485 | -74.05016 | 37230 ft | 503 kts | 68° |
| 2026-04-26 23:20 | 52.96489 | -73.94525 | 37238 ft | 504 kts | 68° |
| 2026-04-26 23:21 | 52.99469 | -73.84066 | 37239 ft | 504 kts | 68° |
| 2026-04-26 23:21 | 53.02458 | -73.73532 | 37238 ft | 504 kts | 68° |
| 2026-04-26 23:22 | 53.05437 | -73.62985 | 37241 ft | 504 kts | 68° |
| 2026-04-26 23:22 | 53.08407 | -73.52424 | 37241 ft | 504 kts | 68° |
| 2026-04-26 23:23 | 53.11370 | -73.41849 | 37243 ft | 504 kts | 69° |
| 2026-04-26 23:23 | 53.14300 | -73.31333 | 37237 ft | 504 kts | 69° |
| 2026-04-26 23:24 | 53.17236 | -73.20742 | 37240 ft | 504 kts | 69° |
| 2026-04-26 23:24 | 53.20167 | -73.10124 | 37245 ft | 504 kts | 69° |
| 2026-04-26 23:25 | 53.23089 | -72.99493 | 37239 ft | 504 kts | 69° |
| 2026-04-26 23:25 | 53.25997 | -72.88863 | 37242 ft | 504 kts | 69° |
| 2026-04-26 23:26 | 53.28886 | -72.78263 | 37238 ft | 504 kts | 70° |
| 2026-04-26 23:26 | 53.31778 | -72.67594 | 37223 ft | 504 kts | 70° |
| 2026-04-26 23:27 | 53.34657 | -72.56918 | 37230 ft | 504 kts | 70° |
| 2026-04-26 23:27 | 53.37532 | -72.46212 | 37227 ft | 504 kts | 70° |
| 2026-04-26 23:28 | 53.40395 | -72.35502 | 37226 ft | 504 kts | 70° |
| 2026-04-26 23:28 | 53.43229 | -72.24851 | 37218 ft | 504 kts | 71° |
| 2026-04-26 23:29 | 53.46077 | -72.14096 | 37202 ft | 504 kts | 71° |
| 2026-04-26 23:29 | 53.48908 | -72.03353 | 37213 ft | 503 kts | 71° |
| 2026-04-26 23:30 | 53.51725 | -71.92615 | 37206 ft | 502 kts | 71° |
| 2026-04-26 23:30 | 53.54513 | -71.81932 | 37207 ft | 503 kts | 71° |
| 2026-04-26 23:31 | 53.57313 | -71.71158 | 37212 ft | 503 kts | 71° |
| 2026-04-26 23:31 | 53.60102 | -71.60372 | 37201 ft | 503 kts | 71° |
| 2026-04-26 23:32 | 53.62883 | -71.49567 | 37197 ft | 503 kts | 71° |
| 2026-04-26 23:32 | 53.65648 | -71.38771 | 37204 ft | 501 kts | 71° |
| 2026-04-26 23:33 | 53.68380 | -71.28052 | 37205 ft | 501 kts | 71° |
| 2026-04-26 23:33 | 53.71119 | -71.17251 | 37204 ft | 501 kts | 71° |
| 2026-04-26 23:34 | 53.73848 | -71.06440 | 37209 ft | 501 kts | 71° |
| 2026-04-26 23:34 | 53.76567 | -70.95613 | 37209 ft | 501 kts | 71° |
| 2026-04-26 23:35 | 53.79262 | -70.84830 | 37196 ft | 501 kts | 71° |
| 2026-04-26 23:35 | 53.81966 | -70.73960 | 37209 ft | 500 kts | 71° |
| 2026-04-26 23:36 | 53.84656 | -70.63096 | 37210 ft | 500 kts | 71° |
| 2026-04-26 23:36 | 53.87336 | -70.52218 | 37218 ft | 500 kts | 71° |
| 2026-04-26 23:37 | 53.90003 | -70.41336 | 37217 ft | 500 kts | 72° |
| 2026-04-26 23:37 | 53.92646 | -70.30498 | 37227 ft | 501 kts | 72° |
| 2026-04-26 23:38 | 53.95305 | -70.19538 | 37235 ft | 502 kts | 72° |
| 2026-04-26 23:38 | 53.97951 | -70.08582 | 37227 ft | 501 kts | 71° |
| 2026-04-26 23:39 | 54.00902 | -69.97819 | 37233 ft | 505 kts | 63° |
| 2026-04-26 23:39 | 54.04500 | -69.87630 | 37249 ft | 506 kts | 62° |
| 2026-04-26 23:40 | 54.08231 | -69.77456 | 37241 ft | 507 kts | 61° |
| 2026-04-26 23:40 | 54.11972 | -69.67249 | 37232 ft | 508 kts | 61° |
| 2026-04-26 23:41 | 54.15699 | -69.56997 | 37241 ft | 509 kts | 61° |
| 2026-04-26 23:41 | 54.19384 | -69.46790 | 37242 ft | 509 kts | 62° |
| 2026-04-26 23:42 | 54.23081 | -69.36494 | 37250 ft | 508 kts | 61° |
| 2026-04-26 23:42 | 54.28603 | -69.21046 | 37250 ft | 507 kts | 62° |
| 2026-04-26 23:43 | 54.32250 | -69.10787 | 37253 ft | 507 kts | 62° |
| 2026-04-26 23:43 | 54.35910 | -69.00451 | 37253 ft | 507 kts | 62° |
| 2026-04-26 23:44 | 54.39561 | -68.90097 | 37252 ft | 507 kts | 62° |
| 2026-04-26 23:44 | 54.43201 | -68.79731 | 37265 ft | 507 kts | 62° |
| 2026-04-26 23:45 | 54.46843 | -68.69312 | 37259 ft | 509 kts | 62° |
| 2026-04-26 23:45 | 54.50451 | -68.58947 | 37263 ft | 508 kts | 61° |
| 2026-04-26 23:46 | 54.54073 | -68.48504 | 37271 ft | 508 kts | 61° |
| 2026-04-26 23:46 | 54.57681 | -68.38052 | 37281 ft | 507 kts | 62° |
| 2026-04-26 23:47 | 54.61278 | -68.27588 | 37285 ft | 507 kts | 61° |
| 2026-04-26 23:47 | 54.64872 | -68.17089 | 37288 ft | 508 kts | 62° |
| 2026-04-26 23:48 | 54.68437 | -68.06628 | 37294 ft | 509 kts | 62° |
| 2026-04-26 23:48 | 54.72017 | -67.96081 | 37294 ft | 509 kts | 62° |
| 2026-04-26 23:49 | 54.75589 | -67.85508 | 37297 ft | 509 kts | 62° |
| 2026-04-26 23:49 | 54.79148 | -67.74926 | 37302 ft | 508 kts | 61° |
| 2026-04-26 23:50 | 54.82676 | -67.64393 | 37305 ft | 508 kts | 61° |
| 2026-04-26 23:50 | 54.86217 | -67.53777 | 37302 ft | 508 kts | 62° |
| 2026-04-26 23:51 | 54.89748 | -67.43142 | 37304 ft | 508 kts | 62° |
| 2026-04-26 23:51 | 54.93273 | -67.32481 | 37304 ft | 508 kts | 62° |
| 2026-04-26 23:52 | 54.96764 | -67.21877 | 37308 ft | 509 kts | 61° |
| 2026-04-26 23:52 | 55.00272 | -67.11170 | 37304 ft | 510 kts | 62° |
| 2026-04-26 23:53 | 55.03782 | -67.00411 | 37304 ft | 510 kts | 62° |
| 2026-04-26 23:53 | 55.07279 | -66.89646 | 37304 ft | 510 kts | 62° |
| 2026-04-26 23:54 | 55.10768 | -66.78856 | 37307 ft | 510 kts | 62° |
| 2026-04-26 23:54 | 55.14224 | -66.68118 | 37309 ft | 511 kts | 62° |
| 2026-04-26 23:55 | 55.17702 | -66.57266 | 37305 ft | 512 kts | 62° |
| 2026-04-26 23:55 | 55.21174 | -66.46383 | 37308 ft | 512 kts | 62° |
| 2026-04-26 23:56 | 55.24640 | -66.35469 | 37313 ft | 512 kts | 62° |
| 2026-04-26 23:56 | 55.28094 | -66.24542 | 37314 ft | 512 kts | 62° |
| 2026-04-26 23:57 | 55.31514 | -66.13675 | 37322 ft | 512 kts | 62° |
| 2026-04-26 23:57 | 55.34950 | -66.02705 | 37303 ft | 512 kts | 61° |
| 2026-04-26 23:58 | 55.38373 | -65.91730 | 37320 ft | 512 kts | 62° |
| 2026-04-26 23:58 | 55.41786 | -65.80733 | 37323 ft | 512 kts | 62° |
| 2026-04-26 23:59 | 55.45168 | -65.69786 | 37306 ft | 512 kts | 62° |
| 2026-04-26 23:59 | 55.48559 | -65.58756 | 37315 ft | 512 kts | 61° |
| 2026-04-27 00:00 | 55.51950 | -65.47679 | 37313 ft | 513 kts | 62° |
| 2026-04-27 00:00 | 55.55333 | -65.36578 | 37325 ft | 513 kts | 62° |
| 2026-04-27 00:01 | 55.58684 | -65.25528 | 37318 ft | 513 kts | 61° |
| 2026-04-27 00:01 | 55.62040 | -65.14408 | 37337 ft | 512 kts | 61° |
| 2026-04-27 00:02 | 55.65379 | -65.03294 | 37328 ft | 511 kts | 61° |
| 2026-04-27 00:02 | 55.68708 | -64.92159 | 37329 ft | 512 kts | 61° |
| 2026-04-27 00:03 | 55.72032 | -64.80990 | 37333 ft | 512 kts | 61° |
| 2026-04-27 00:03 | 55.75322 | -64.69883 | 37333 ft | 512 kts | 61° |
| 2026-04-27 00:04 | 55.78626 | -64.58675 | 37335 ft | 512 kts | 62° |
| 2026-04-27 00:04 | 55.81917 | -64.47456 | 37341 ft | 512 kts | 61° |
| 2026-04-27 00:05 | 55.85203 | -64.36199 | 37337 ft | 513 kts | 61° |
| 2026-04-27 00:05 | 55.88452 | -64.25018 | 37335 ft | 511 kts | 61° |
| 2026-04-27 00:06 | 55.91704 | -64.13770 | 37335 ft | 510 kts | 61° |
| 2026-04-27 00:06 | 55.94942 | -64.02521 | 37334 ft | 510 kts | 62° |
| 2026-04-27 00:07 | 55.98175 | -63.91233 | 37336 ft | 510 kts | 62° |
| 2026-04-27 00:07 | 56.01372 | -63.80014 | 37333 ft | 510 kts | 62° |
| 2026-04-27 00:08 | 56.04582 | -63.68694 | 37334 ft | 510 kts | 62° |
| 2026-04-27 00:08 | 56.07783 | -63.57352 | 37329 ft | 510 kts | 62° |
| 2026-04-27 00:09 | 56.10972 | -63.45998 | 37331 ft | 510 kts | 62° |
| 2026-04-27 00:09 | 56.14123 | -63.34721 | 37333 ft | 509 kts | 62° |
| 2026-04-27 00:10 | 56.17286 | -63.23347 | 37331 ft | 510 kts | 62° |
| 2026-04-27 00:10 | 56.20442 | -63.11942 | 37331 ft | 510 kts | 62° |
| 2026-04-27 00:11 | 56.23585 | -63.00527 | 37331 ft | 510 kts | 62° |
| 2026-04-27 00:11 | 56.26699 | -62.89163 | 37339 ft | 510 kts | 62° |
| 2026-04-27 00:12 | 56.29822 | -62.77703 | 37355 ft | 510 kts | 62° |
| 2026-04-27 00:12 | 56.32937 | -62.66218 | 37341 ft | 511 kts | 62° |
| 2026-04-27 00:13 | 56.36050 | -62.54686 | 37348 ft | 511 kts | 62° |
| 2026-04-27 00:13 | 56.39120 | -62.43252 | 37354 ft | 509 kts | 62° |
| 2026-04-27 00:14 | 56.42191 | -62.31757 | 37354 ft | 508 kts | 62° |
| 2026-04-27 00:14 | 56.45249 | -62.20252 | 37374 ft | 508 kts | 62° |
| 2026-04-27 00:15 | 56.48301 | -62.08707 | 37363 ft | 509 kts | 62° |
| 2026-04-27 00:15 | 56.51349 | -61.97124 | 37361 ft | 510 kts | 62° |
| 2026-04-27 00:16 | 56.54364 | -61.85608 | 37359 ft | 510 kts | 62° |
| 2026-04-27 00:16 | 56.57391 | -61.73986 | 37360 ft | 510 kts | 62° |
| 2026-04-27 00:17 | 56.60407 | -61.62342 | 37359 ft | 510 kts | 62° |
| 2026-04-27 00:17 | 56.63410 | -61.50689 | 37358 ft | 509 kts | 62° |
| 2026-04-27 00:18 | 56.66382 | -61.39097 | 37363 ft | 509 kts | 62° |
| 2026-04-27 00:18 | 56.69362 | -61.27410 | 37369 ft | 509 kts | 62° |
| 2026-04-27 00:19 | 56.72333 | -61.15697 | 37378 ft | 510 kts | 62° |
| 2026-04-27 00:19 | 56.75292 | -61.03974 | 37379 ft | 510 kts | 62° |
| 2026-04-27 00:20 | 56.78225 | -60.92290 | 37382 ft | 511 kts | 62° |
| 2026-04-27 00:20 | 56.81173 | -60.80488 | 37381 ft | 511 kts | 62° |
| 2026-04-27 00:21 | 56.84112 | -60.68656 | 37379 ft | 512 kts | 62° |
| 2026-04-27 00:21 | 56.87034 | -60.56821 | 37370 ft | 510 kts | 62° |
| 2026-04-27 00:22 | 56.89918 | -60.45081 | 37371 ft | 509 kts | 62° |
| 2026-04-27 00:22 | 56.92810 | -60.33250 | 37372 ft | 510 kts | 62° |
| 2026-04-27 00:23 | 56.95698 | -60.21371 | 37360 ft | 511 kts | 62° |
| 2026-04-27 00:23 | 56.98576 | -60.09466 | 37360 ft | 511 kts | 62° |
| 2026-04-27 00:24 | 57.01424 | -59.97620 | 37358 ft | 511 kts | 62° |
| 2026-04-27 00:24 | 57.04279 | -59.85679 | 37347 ft | 511 kts | 62° |
| 2026-04-27 00:25 | 57.07124 | -59.73718 | 37350 ft | 512 kts | 62° |
| 2026-04-27 00:25 | 57.09966 | -59.61700 | 37346 ft | 512 kts | 62° |
| 2026-04-27 00:26 | 57.12785 | -59.49704 | 37330 ft | 511 kts | 62° |
| 2026-04-27 00:26 | 57.15574 | -59.37775 | 37330 ft | 510 kts | 62° |
| 2026-04-27 00:27 | 57.18371 | -59.25746 | 37327 ft | 511 kts | 62° |
| 2026-04-27 00:27 | 57.21158 | -59.13696 | 37332 ft | 511 kts | 62° |
| 2026-04-27 00:28 | 57.23939 | -59.01605 | 37317 ft | 512 kts | 62° |
| 2026-04-27 00:28 | 57.26693 | -58.89559 | 37316 ft | 513 kts | 62° |
| 2026-04-27 00:29 | 57.29452 | -58.77421 | 37315 ft | 513 kts | 62° |
| 2026-04-27 00:29 | 57.32203 | -58.65250 | 37305 ft | 512 kts | 62° |
| 2026-04-27 00:30 | 57.34929 | -58.53111 | 37336 ft | 510 kts | 61° |
| 2026-04-27 00:30 | 57.37645 | -58.40959 | 37307 ft | 511 kts | 62° |
| 2026-04-27 00:31 | 57.40334 | -58.28859 | 37289 ft | 511 kts | 62° |
| 2026-04-27 00:31 | 57.43028 | -58.16657 | 37309 ft | 511 kts | 62° |
| 2026-04-27 00:32 | 57.45712 | -58.04435 | 37288 ft | 511 kts | 62° |
| 2026-04-27 00:32 | 57.47050 | -57.98319 | 37397 ft | 512 kts | 62° |
| 2026-04-27 00:32 | 57.48421 | -57.92222 | 37616 ft | 510 kts | 61° |
| 2026-04-27 00:33 | 57.49822 | -57.86161 | 37828 ft | 509 kts | 60° |
| 2026-04-27 00:33 | 57.51230 | -57.80129 | 38021 ft | 509 kts | 60° |
| 2026-04-27 00:33 | 57.52620 | -57.74168 | 38214 ft | 509 kts | 60° |
| 2026-04-27 00:33 | 57.54021 | -57.68130 | 38394 ft | 508 kts | 61° |
| 2026-04-27 00:34 | 57.55413 | -57.62082 | 38575 ft | 508 kts | 61° |
| 2026-04-27 00:34 | 57.56800 | -57.56023 | 38756 ft | 508 kts | 61° |
| 2026-04-27 00:34 | 57.58180 | -57.49965 | 38901 ft | 508 kts | 61° |
| 2026-04-27 00:34 | 57.59555 | -57.43901 | 39043 ft | 508 kts | 61° |
| 2026-04-27 00:35 | 57.60925 | -57.37835 | 39162 ft | 508 kts | 62° |
| 2026-04-27 00:35 | 57.62292 | -57.31769 | 39252 ft | 508 kts | 62° |
| 2026-04-27 00:35 | 57.65008 | -57.19667 | 39259 ft | 509 kts | 62° |
| 2026-04-27 00:36 | 57.67729 | -57.07471 | 39277 ft | 509 kts | 62° |
| 2026-04-27 00:36 | 57.70442 | -56.95242 | 39266 ft | 509 kts | 62° |
| 2026-04-27 00:37 | 57.73143 | -56.82999 | 39248 ft | 509 kts | 62° |
| 2026-04-27 00:37 | 57.75833 | -56.70732 | 39243 ft | 509 kts | 62° |
| 2026-04-27 00:38 | 57.78479 | -56.58534 | 39248 ft | 509 kts | 62° |
| 2026-04-27 00:38 | 57.81142 | -56.46268 | 39239 ft | 507 kts | 62° |
| 2026-04-27 00:39 | 57.83787 | -56.34018 | 39244 ft | 507 kts | 62° |
| 2026-04-27 00:39 | 57.86418 | -56.21740 | 39239 ft | 507 kts | 62° |
| 2026-04-27 00:40 | 57.89020 | -56.09523 | 39225 ft | 507 kts | 62° |
| 2026-04-27 00:40 | 57.91626 | -55.97206 | 39237 ft | 507 kts | 62° |
| 2026-04-27 00:41 | 57.94224 | -55.84856 | 39220 ft | 508 kts | 62° |
| 2026-04-27 00:41 | 57.96814 | -55.72466 | 39207 ft | 509 kts | 62° |
| 2026-04-27 00:42 | 57.99392 | -55.60061 | 39206 ft | 509 kts | 63° |
| 2026-04-27 00:42 | 58.01939 | -55.47721 | 39198 ft | 507 kts | 63° |
| 2026-04-27 00:43 | 58.04482 | -55.35326 | 39226 ft | 506 kts | 63° |
| 2026-04-27 00:43 | 58.07013 | -55.22927 | 39184 ft | 507 kts | 63° |
| 2026-04-27 00:44 | 58.09534 | -55.10496 | 39181 ft | 507 kts | 63° |
| 2026-04-27 00:44 | 58.12026 | -54.98129 | 39180 ft | 507 kts | 63° |
| 2026-04-27 00:45 | 58.14525 | -54.85648 | 39166 ft | 507 kts | 63° |
| 2026-04-27 00:45 | 58.17010 | -54.73155 | 39168 ft | 507 kts | 63° |
| 2026-04-27 00:46 | 58.19486 | -54.60636 | 39161 ft | 508 kts | 64° |
| 2026-04-27 00:46 | 58.21940 | -54.48148 | 39157 ft | 509 kts | 64° |
| 2026-04-27 00:47 | 58.24395 | -54.35568 | 39140 ft | 508 kts | 64° |
| 2026-04-27 00:47 | 58.26835 | -54.22986 | 39139 ft | 508 kts | 64° |
| 2026-04-27 00:48 | 58.29264 | -54.10380 | 39131 ft | 508 kts | 64° |
| 2026-04-27 00:48 | 58.31666 | -53.97839 | 39127 ft | 509 kts | 64° |
| 2026-04-27 00:49 | 58.34078 | -53.85165 | 39117 ft | 510 kts | 64° |
| 2026-04-27 00:49 | 58.36479 | -53.72460 | 39117 ft | 510 kts | 65° |
| 2026-04-27 00:50 | 58.40059 | -53.53356 | 39097 ft | 510 kts | 65° |
| 2026-04-27 00:51 | 58.42414 | -53.40682 | 39097 ft | 510 kts | 65° |
| 2026-04-27 00:51 | 58.44777 | -53.27890 | 39086 ft | 512 kts | 65° |
| 2026-04-27 00:52 | 58.47131 | -53.15057 | 39079 ft | 512 kts | 65° |
| 2026-04-27 00:52 | 58.49472 | -53.02198 | 39063 ft | 512 kts | 65° |
| 2026-04-27 00:53 | 58.51801 | -52.89326 | 39068 ft | 512 kts | 65° |
| 2026-04-27 00:53 | 58.54101 | -52.76520 | 39058 ft | 512 kts | 66° |
| 2026-04-27 00:54 | 58.56408 | -52.63595 | 39049 ft | 514 kts | 66° |
| 2026-04-27 00:54 | 58.58713 | -52.50593 | 39034 ft | 516 kts | 66° |
| 2026-04-27 00:55 | 58.61006 | -52.37557 | 39033 ft | 516 kts | 66° |
| 2026-04-27 00:55 | 58.63289 | -52.24489 | 39021 ft | 516 kts | 66° |
| 2026-04-27 00:56 | 58.65542 | -52.11499 | 39014 ft | 515 kts | 67° |
| 2026-04-27 00:56 | 58.67789 | -51.98451 | 39010 ft | 515 kts | 67° |
| 2026-04-27 00:57 | 58.70040 | -51.85304 | 39002 ft | 519 kts | 67° |
| 2026-04-27 00:57 | 58.72282 | -51.72090 | 38984 ft | 520 kts | 68° |
| 2026-04-27 00:58 | 58.74509 | -51.58867 | 38979 ft | 520 kts | 68° |
| 2026-04-27 00:58 | 58.76712 | -51.45700 | 38963 ft | 520 kts | 68° |
| 2026-04-27 00:59 | 58.78914 | -51.32444 | 38963 ft | 520 kts | 68° |
| 2026-04-27 00:59 | 58.81105 | -51.19155 | 38942 ft | 520 kts | 68° |
| 2026-04-27 01:00 | 58.83280 | -51.05854 | 38937 ft | 520 kts | 68° |
| 2026-04-27 01:00 | 58.85426 | -50.92627 | 38943 ft | 519 kts | 68° |
| 2026-04-27 01:01 | 58.87571 | -50.79316 | 38935 ft | 519 kts | 68° |
| 2026-04-27 01:01 | 58.89703 | -50.65982 | 38951 ft | 519 kts | 69° |
| 2026-04-27 01:02 | 58.91833 | -50.52579 | 38920 ft | 523 kts | 69° |
| 2026-04-27 01:02 | 58.93961 | -50.39072 | 38919 ft | 524 kts | 69° |
| 2026-04-27 01:03 | 58.96058 | -50.25639 | 38891 ft | 525 kts | 69° |
| 2026-04-27 01:03 | 58.98155 | -50.12104 | 38893 ft | 525 kts | 69° |
| 2026-04-27 01:04 | 59.00238 | -49.98543 | 38874 ft | 525 kts | 69° |
| 2026-04-27 01:04 | 59.02224 | -49.84861 | 38872 ft | 529 kts | 71° |
| 2026-04-27 01:05 | 59.04130 | -49.71015 | 38854 ft | 532 kts | 71° |
| 2026-04-27 01:05 | 59.06023 | -49.57205 | 38855 ft | 532 kts | 71° |
| 2026-04-27 01:06 | 59.07928 | -49.43318 | 38827 ft | 532 kts | 71° |
| 2026-04-27 01:06 | 59.09829 | -49.29404 | 38825 ft | 532 kts | 71° |
| 2026-04-27 01:07 | 59.11717 | -49.15460 | 38808 ft | 534 kts | 71° |
| 2026-04-27 01:07 | 59.13583 | -49.01547 | 38807 ft | 535 kts | 72° |
| 2026-04-27 01:08 | 59.15447 | -48.87511 | 38781 ft | 536 kts | 72° |
| 2026-04-27 01:08 | 59.17298 | -48.73449 | 38773 ft | 535 kts | 72° |
| 2026-04-27 01:09 | 59.19132 | -48.59387 | 38761 ft | 534 kts | 72° |
| 2026-04-27 01:09 | 59.20937 | -48.45417 | 38760 ft | 535 kts | 72° |
| 2026-04-27 01:10 | 59.22743 | -48.31310 | 38737 ft | 536 kts | 72° |
| 2026-04-27 01:10 | 59.24535 | -48.17183 | 38736 ft | 536 kts | 72° |
| 2026-04-27 01:11 | 59.26312 | -48.03036 | 38705 ft | 536 kts | 72° |
| 2026-04-27 01:11 | 59.28070 | -47.88892 | 38702 ft | 535 kts | 72° |
| 2026-04-27 01:12 | 59.29805 | -47.74810 | 38701 ft | 537 kts | 73° |
| 2026-04-27 01:12 | 59.31539 | -47.60588 | 38677 ft | 538 kts | 73° |
| 2026-04-27 01:13 | 59.33261 | -47.46330 | 38657 ft | 538 kts | 73° |
| 2026-04-27 01:13 | 59.34968 | -47.32064 | 38657 ft | 537 kts | 74° |
| 2026-04-27 01:14 | 59.36641 | -47.17898 | 38637 ft | 537 kts | 74° |
| 2026-04-27 01:14 | 59.38315 | -47.03611 | 38657 ft | 538 kts | 74° |
| 2026-04-27 01:15 | 59.39974 | -46.89310 | 38620 ft | 538 kts | 75° |
| 2026-04-27 01:15 | 59.41615 | -46.74986 | 38620 ft | 539 kts | 75° |
| 2026-04-27 01:16 | 59.43236 | -46.60705 | 38587 ft | 539 kts | 75° |
| 2026-04-27 01:16 | 59.44848 | -46.46318 | 38585 ft | 539 kts | 75° |
| 2026-04-27 01:17 | 59.46447 | -46.31908 | 38587 ft | 540 kts | 76° |
| 2026-04-27 01:17 | 59.48034 | -46.17468 | 38568 ft | 539 kts | 76° |
| 2026-04-27 01:18 | 59.49591 | -46.03159 | 38567 ft | 538 kts | 76° |
| 2026-04-27 01:18 | 59.51142 | -45.88734 | 38545 ft | 538 kts | 76° |
| 2026-04-27 01:19 | 59.52673 | -45.74323 | 38544 ft | 537 kts | 76° |
| 2026-04-27 01:19 | 59.54189 | -45.59890 | 38526 ft | 538 kts | 77° |
| 2026-04-27 01:20 | 59.55692 | -45.45427 | 38531 ft | 536 kts | 77° |
| 2026-04-27 01:20 | 59.57156 | -45.31166 | 38515 ft | 534 kts | 78° |
| 2026-04-27 01:21 | 59.58614 | -45.16802 | 38513 ft | 533 kts | 78° |
| 2026-04-27 01:21 | 59.60053 | -45.02460 | 38502 ft | 533 kts | 78° |
| 2026-04-27 01:22 | 59.61467 | -44.88199 | 38502 ft | 533 kts | 78° |
| 2026-04-27 01:22 | 59.62876 | -44.73823 | 38498 ft | 533 kts | 79° |
| 2026-04-27 01:23 | 59.64271 | -44.59412 | 38492 ft | 534 kts | 79° |
| 2026-04-27 01:23 | 59.65652 | -44.44972 | 38481 ft | 534 kts | 79° |
| 2026-04-27 01:24 | 59.67006 | -44.30630 | 38484 ft | 534 kts | 79° |
| 2026-04-27 01:24 | 59.68355 | -44.16172 | 38476 ft | 534 kts | 79° |
| 2026-04-27 01:25 | 59.69687 | -44.01711 | 38463 ft | 534 kts | 79° |
| 2026-04-27 01:25 | 59.71004 | -43.87232 | 38466 ft | 534 kts | 80° |
| 2026-04-27 01:26 | 59.72304 | -43.72744 | 38478 ft | 534 kts | 80° |
| 2026-04-27 01:26 | 59.73588 | -43.58252 | 38475 ft | 534 kts | 80° |
| 2026-04-27 01:27 | 59.74848 | -43.43840 | 38476 ft | 534 kts | 80° |
| 2026-04-27 01:27 | 59.76100 | -43.29331 | 38481 ft | 534 kts | 81° |
| 2026-04-27 01:28 | 59.77336 | -43.14806 | 38473 ft | 534 kts | 81° |
| 2026-04-27 01:28 | 59.78352 | -43.02719 | 38472 ft | 534 kts | 81° |
| 2026-04-27 01:29 | 59.79753 | -42.85812 | 38445 ft | 534 kts | 81° |
| 2026-04-27 01:29 | 59.80939 | -42.71278 | 38456 ft | 532 kts | 81° |
| 2026-04-27 01:30 | 59.82105 | -42.56787 | 38459 ft | 531 kts | 82° |
| 2026-04-27 01:30 | 59.83062 | -42.44740 | 38476 ft | 530 kts | 82° |
| 2026-04-27 01:31 | 59.84196 | -42.30266 | 38453 ft | 530 kts | 82° |
| 2026-04-27 01:31 | 59.85493 | -42.13437 | 38452 ft | 530 kts | 82° |
| 2026-04-27 01:32 | 59.86407 | -42.01397 | 38446 ft | 530 kts | 82° |
| 2026-04-27 01:32 | 59.87493 | -41.86901 | 38443 ft | 529 kts | 83° |
| 2026-04-27 01:33 | 59.88564 | -41.72397 | 38438 ft | 529 kts | 83° |
| 2026-04-27 01:33 | 59.89617 | -41.57897 | 38434 ft | 529 kts | 83° |
| 2026-04-27 01:34 | 59.90649 | -41.43442 | 38422 ft | 532 kts | 83° |
| 2026-04-27 01:34 | 59.91676 | -41.28839 | 38420 ft | 532 kts | 84° |
| 2026-04-27 01:35 | 59.92687 | -41.14227 | 38413 ft | 532 kts | 84° |
| 2026-04-27 01:35 | 59.93682 | -40.99610 | 38409 ft | 532 kts | 84° |
| 2026-04-27 01:36 | 59.94656 | -40.85049 | 38400 ft | 534 kts | 84° |
| 2026-04-27 01:36 | 59.95621 | -40.70360 | 38403 ft | 534 kts | 84° |
| 2026-04-27 01:37 | 59.96571 | -40.55659 | 38406 ft | 534 kts | 84° |
| 2026-04-27 01:37 | 59.97504 | -40.40954 | 38364 ft | 534 kts | 84° |
| 2026-04-27 01:38 | 59.98420 | -40.26259 | 38391 ft | 533 kts | 84° |
| 2026-04-27 01:38 | 59.99312 | -40.11694 | 38387 ft | 531 kts | 85° |
| 2026-04-27 01:39 | 60.00186 | -39.97076 | 38389 ft | 530 kts | 85° |
| 2026-04-27 01:39 | 60.00794 | -39.82413 | 38386 ft | 529 kts | 88° |
| 2026-04-27 01:40 | 60.01247 | -39.67747 | 38385 ft | 529 kts | 89° |
| 2026-04-27 01:40 | 60.01712 | -39.53075 | 38383 ft | 529 kts | 88° |
| 2026-04-27 01:41 | 60.02194 | -39.38500 | 38392 ft | 528 kts | 89° |
| 2026-04-27 01:41 | 60.02674 | -39.23855 | 38365 ft | 527 kts | 89° |
| 2026-04-27 01:42 | 60.03137 | -39.09225 | 38395 ft | 526 kts | 89° |
| 2026-04-27 01:42 | 60.03582 | -38.94613 | 38404 ft | 526 kts | 89° |
| 2026-04-27 01:43 | 60.04007 | -38.80096 | 38406 ft | 526 kts | 90° |
| 2026-04-27 01:43 | 60.04419 | -38.65474 | 38404 ft | 526 kts | 90° |
| 2026-04-27 01:44 | 60.04815 | -38.50850 | 38425 ft | 526 kts | 90° |
| 2026-04-27 01:44 | 60.05195 | -38.36228 | 38423 ft | 526 kts | 90° |
| 2026-04-27 01:45 | 60.05556 | -38.21698 | 38423 ft | 526 kts | 90° |
| 2026-04-27 01:45 | 60.05904 | -38.07062 | 38413 ft | 526 kts | 91° |
| 2026-04-27 01:46 | 60.06235 | -37.92467 | 38445 ft | 524 kts | 91° |
| 2026-04-27 01:46 | 60.06549 | -37.77896 | 38443 ft | 524 kts | 91° |
| 2026-04-27 01:47 | 60.06847 | -37.63323 | 38450 ft | 524 kts | 91° |
| 2026-04-27 01:47 | 60.07126 | -37.48856 | 38464 ft | 524 kts | 91° |
| 2026-04-27 01:48 | 60.07391 | -37.34277 | 38470 ft | 523 kts | 92° |
| 2026-04-27 01:48 | 60.07641 | -37.19717 | 38470 ft | 523 kts | 92° |
| 2026-04-27 01:49 | 60.07875 | -37.05147 | 38482 ft | 523 kts | 92° |
| 2026-04-27 01:49 | 60.08093 | -36.90590 | 38458 ft | 523 kts | 93° |
| 2026-04-27 01:50 | 60.08294 | -36.76132 | 38490 ft | 522 kts | 93° |
| 2026-04-27 01:50 | 60.08478 | -36.61592 | 38511 ft | 522 kts | 93° |
| 2026-04-27 01:51 | 60.08647 | -36.47050 | 38511 ft | 522 kts | 93° |
| 2026-04-27 01:51 | 60.08800 | -36.32500 | 38516 ft | 522 kts | 94° |
| 2026-04-27 01:52 | 60.08937 | -36.18060 | 38530 ft | 522 kts | 94° |
| 2026-04-27 01:52 | 60.09058 | -36.03512 | 38534 ft | 522 kts | 94° |
| 2026-04-27 01:53 | 60.09164 | -35.88973 | 38534 ft | 522 kts | 94° |
| 2026-04-27 01:53 | 60.09253 | -35.74438 | 38531 ft | 522 kts | 94° |
| 2026-04-27 01:54 | 60.09327 | -35.59999 | 38549 ft | 521 kts | 94° |
| 2026-04-27 01:54 | 60.09384 | -35.45487 | 38548 ft | 521 kts | 94° |
| 2026-04-27 01:55 | 60.09426 | -35.30961 | 38555 ft | 521 kts | 95° |
| 2026-04-27 01:55 | 60.09451 | -35.16435 | 38553 ft | 522 kts | 95° |
| 2026-04-27 01:56 | 60.09461 | -34.94642 | 38559 ft | 521 kts | 95° |
| 2026-04-27 01:56 | 60.09447 | -34.80216 | 38570 ft | 521 kts | 95° |
| 2026-04-27 01:57 | 60.09417 | -34.65685 | 38575 ft | 521 kts | 95° |
| 2026-04-27 01:57 | 60.09372 | -34.51155 | 38573 ft | 522 kts | 95° |
| 2026-04-27 01:58 | 60.09310 | -34.36622 | 38594 ft | 522 kts | 95° |
| 2026-04-27 01:58 | 60.09233 | -34.22162 | 38594 ft | 522 kts | 96° |
| 2026-04-27 01:59 | 60.09140 | -34.07614 | 38597 ft | 522 kts | 96° |
| 2026-04-27 01:59 | 60.09030 | -33.93068 | 38599 ft | 522 kts | 96° |
| 2026-04-27 02:00 | 60.08905 | -33.78526 | 38605 ft | 522 kts | 96° |
| 2026-04-27 02:00 | 60.08765 | -33.64079 | 38617 ft | 522 kts | 96° |
| 2026-04-27 02:01 | 60.08608 | -33.49529 | 38614 ft | 522 kts | 96° |
| 2026-04-27 02:01 | 60.08435 | -33.34983 | 38631 ft | 522 kts | 97° |
| 2026-04-27 02:02 | 60.08246 | -33.20447 | 38641 ft | 522 kts | 97° |
| 2026-04-27 02:02 | 60.08040 | -33.05908 | 38639 ft | 522 kts | 97° |
| 2026-04-27 02:03 | 60.07821 | -32.91475 | 38642 ft | 523 kts | 97° |
| 2026-04-27 02:03 | 60.07583 | -32.76912 | 38656 ft | 523 kts | 97° |
| 2026-04-27 02:04 | 60.07330 | -32.62354 | 38659 ft | 523 kts | 97° |
| 2026-04-27 02:04 | 60.07061 | -32.47800 | 38666 ft | 523 kts | 97° |
| 2026-04-27 02:05 | 60.06778 | -32.33354 | 38673 ft | 523 kts | 97° |
| 2026-04-27 02:05 | 60.06477 | -32.18808 | 38670 ft | 523 kts | 98° |
| 2026-04-27 02:06 | 60.06160 | -32.04259 | 38689 ft | 524 kts | 98° |
| 2026-04-27 02:06 | 60.05827 | -31.89698 | 38689 ft | 524 kts | 98° |
| 2026-04-27 02:07 | 60.05477 | -31.75143 | 38691 ft | 523 kts | 98° |
| 2026-04-27 02:07 | 60.05115 | -31.60697 | 38702 ft | 523 kts | 98° |
| 2026-04-27 02:08 | 60.04733 | -31.46141 | 38705 ft | 523 kts | 99° |
| 2026-04-27 02:08 | 60.04337 | -31.31617 | 38701 ft | 523 kts | 99° |
| 2026-04-27 02:09 | 60.03924 | -31.17074 | 38710 ft | 524 kts | 99° |
| 2026-04-27 02:09 | 60.03498 | -31.02644 | 38713 ft | 523 kts | 99° |
| 2026-04-27 02:10 | 60.03054 | -30.88125 | 38725 ft | 522 kts | 100° |
| 2026-04-27 02:10 | 60.02595 | -30.73645 | 38723 ft | 522 kts | 100° |
| 2026-04-27 02:11 | 60.02119 | -30.59159 | 38731 ft | 522 kts | 100° |
| 2026-04-27 02:11 | 60.01628 | -30.44677 | 38740 ft | 522 kts | 100° |
| 2026-04-27 02:12 | 60.01124 | -30.30285 | 38739 ft | 522 kts | 100° |
| 2026-04-27 02:12 | 60.00601 | -30.15820 | 38754 ft | 522 kts | 101° |
| 2026-04-27 02:13 | 60.00063 | -30.01350 | 38753 ft | 522 kts | 101° |
| 2026-04-27 02:13 | 59.99362 | -29.86957 | 38756 ft | 519 kts | 104° |
| 2026-04-27 02:14 | 59.98431 | -29.72772 | 38752 ft | 518 kts | 104° |
| 2026-04-27 02:14 | 59.97480 | -29.58492 | 38770 ft | 519 kts | 104° |
| 2026-04-27 02:15 | 59.96554 | -29.44206 | 38769 ft | 519 kts | 104° |
| 2026-04-27 02:15 | 59.95631 | -29.29904 | 38778 ft | 519 kts | 104° |
| 2026-04-27 02:16 | 59.94695 | -29.15619 | 38793 ft | 519 kts | 104° |
| 2026-04-27 02:16 | 59.93750 | -29.01444 | 38783 ft | 519 kts | 104° |
| 2026-04-27 02:17 | 59.92781 | -28.87180 | 38786 ft | 520 kts | 104° |
| 2026-04-27 02:17 | 59.91790 | -28.72867 | 38796 ft | 522 kts | 104° |
| 2026-04-27 02:18 | 59.90790 | -28.58621 | 38798 ft | 522 kts | 104° |
| 2026-04-27 02:18 | 59.89771 | -28.44311 | 38807 ft | 522 kts | 104° |
| 2026-04-27 02:19 | 59.88735 | -28.29999 | 38807 ft | 522 kts | 105° |
| 2026-04-27 02:19 | 59.87682 | -28.15684 | 38809 ft | 522 kts | 105° |
| 2026-04-27 02:20 | 59.86622 | -28.01494 | 38820 ft | 522 kts | 105° |
| 2026-04-27 02:20 | 59.85539 | -27.87220 | 38780 ft | 522 kts | 105° |
| 2026-04-27 02:21 | 59.84439 | -27.72930 | 38824 ft | 524 kts | 105° |
| 2026-04-27 02:21 | 59.83321 | -27.58613 | 38832 ft | 525 kts | 105° |
| 2026-04-27 02:22 | 59.82187 | -27.44290 | 38829 ft | 525 kts | 105° |
| 2026-04-27 02:22 | 59.81044 | -27.30066 | 38825 ft | 524 kts | 105° |
| 2026-04-27 02:23 | 59.79876 | -27.15747 | 38841 ft | 526 kts | 105° |
| 2026-04-27 02:23 | 59.78692 | -27.01425 | 38841 ft | 526 kts | 105° |
| 2026-04-27 02:24 | 59.77491 | -26.87084 | 38850 ft | 526 kts | 105° |
| 2026-04-27 02:24 | 59.76275 | -26.72778 | 38847 ft | 527 kts | 105° |
| 2026-04-27 02:25 | 59.75049 | -26.58534 | 38861 ft | 527 kts | 105° |
| 2026-04-27 02:25 | 59.73800 | -26.44210 | 38858 ft | 527 kts | 105° |
| 2026-04-27 02:26 | 59.72534 | -26.29892 | 38874 ft | 528 kts | 105° |
| 2026-04-27 02:26 | 59.71249 | -26.15546 | 38873 ft | 528 kts | 105° |
| 2026-04-27 02:27 | 59.69960 | -26.01326 | 38873 ft | 528 kts | 106° |
| 2026-04-27 02:27 | 59.68646 | -25.87019 | 38887 ft | 528 kts | 106° |
| 2026-04-27 02:28 | 59.67316 | -25.72727 | 38876 ft | 528 kts | 106° |
| 2026-04-27 02:28 | 59.65970 | -25.58439 | 38888 ft | 529 kts | 105° |
| 2026-04-27 02:29 | 59.64607 | -25.44152 | 38903 ft | 529 kts | 105° |
| 2026-04-27 02:29 | 59.63237 | -25.29949 | 38909 ft | 529 kts | 106° |
| 2026-04-27 02:30 | 59.61843 | -25.15671 | 38911 ft | 529 kts | 106° |
| 2026-04-27 02:30 | 59.60433 | -25.01408 | 38923 ft | 529 kts | 106° |
| 2026-04-27 02:31 | 59.59008 | -24.87160 | 38925 ft | 529 kts | 106° |
| 2026-04-27 02:31 | 59.57576 | -24.73018 | 38926 ft | 530 kts | 106° |
| 2026-04-27 02:32 | 59.56119 | -24.58782 | 38942 ft | 529 kts | 106° |
| 2026-04-27 02:32 | 59.54651 | -24.44587 | 38945 ft | 528 kts | 106° |
| 2026-04-27 02:33 | 59.53166 | -24.30411 | 38949 ft | 528 kts | 106° |
| 2026-04-27 02:33 | 59.51668 | -24.16263 | 38950 ft | 528 kts | 106° |
| 2026-04-27 02:34 | 59.50164 | -24.02213 | 38969 ft | 528 kts | 106° |
| 2026-04-27 02:34 | 59.48633 | -23.88065 | 38978 ft | 529 kts | 106° |
| 2026-04-27 02:35 | 59.47085 | -23.73914 | 38977 ft | 529 kts | 106° |
| 2026-04-27 02:35 | 59.45521 | -23.59768 | 38972 ft | 529 kts | 106° |
| 2026-04-27 02:36 | 59.43954 | -23.45745 | 38994 ft | 529 kts | 107° |
| 2026-04-27 02:36 | 59.42361 | -23.31637 | 39002 ft | 529 kts | 107° |
| 2026-04-27 02:37 | 59.40751 | -23.17543 | 38999 ft | 529 kts | 106° |
| 2026-04-27 02:37 | 59.39125 | -23.03437 | 39016 ft | 530 kts | 106° |
| 2026-04-27 02:38 | 59.37495 | -22.89442 | 39015 ft | 530 kts | 107° |
| 2026-04-27 02:38 | 59.35838 | -22.75357 | 39024 ft | 530 kts | 107° |
| 2026-04-27 02:39 | 59.34166 | -22.61295 | 39024 ft | 529 kts | 107° |
| 2026-04-27 02:39 | 59.32485 | -22.47287 | 39031 ft | 528 kts | 107° |
| 2026-04-27 02:40 | 59.30799 | -22.33391 | 39041 ft | 529 kts | 106° |
| 2026-04-27 02:40 | 59.29083 | -22.19380 | 39051 ft | 530 kts | 106° |
| 2026-04-27 02:41 | 59.27352 | -22.05379 | 39061 ft | 530 kts | 107° |
| 2026-04-27 02:41 | 59.25607 | -21.91394 | 39059 ft | 529 kts | 107° |
| 2026-04-27 02:42 | 59.23846 | -21.77424 | 39077 ft | 529 kts | 107° |
| 2026-04-27 02:42 | 59.22082 | -21.63565 | 39072 ft | 529 kts | 106° |
| 2026-04-27 02:43 | 59.20293 | -21.49635 | 39088 ft | 529 kts | 106° |
| 2026-04-27 02:43 | 59.18489 | -21.35719 | 39094 ft | 529 kts | 107° |
| 2026-04-27 02:44 | 59.16671 | -21.21820 | 39094 ft | 529 kts | 107° |
| 2026-04-27 02:44 | 59.14851 | -21.08040 | 39116 ft | 529 kts | 107° |
| 2026-04-27 02:45 | 59.13004 | -20.94178 | 39113 ft | 529 kts | 107° |
| 2026-04-27 02:45 | 59.11141 | -20.80325 | 39119 ft | 529 kts | 107° |
| 2026-04-27 02:46 | 59.09261 | -20.66468 | 39106 ft | 530 kts | 107° |
| 2026-04-27 02:46 | 59.07369 | -20.52648 | 39137 ft | 528 kts | 107° |
| 2026-04-27 02:47 | 59.05480 | -20.38966 | 39139 ft | 528 kts | 107° |
| 2026-04-27 02:47 | 59.03563 | -20.25206 | 39154 ft | 528 kts | 107° |
| 2026-04-27 02:48 | 59.01631 | -20.11462 | 39154 ft | 528 kts | 107° |
| 2026-04-27 02:48 | 58.99686 | -19.97740 | 39162 ft | 528 kts | 107° |
| 2026-04-27 02:49 | 58.97651 | -19.84171 | 39170 ft | 527 kts | 109° |
| 2026-04-27 02:49 | 58.95534 | -19.70573 | 39151 ft | 527 kts | 109° |
| 2026-04-27 02:50 | 58.93415 | -19.57010 | 39170 ft | 526 kts | 108° |
| 2026-04-27 02:50 | 58.91298 | -19.43460 | 39179 ft | 526 kts | 109° |
| 2026-04-27 02:51 | 58.89169 | -19.29922 | 39183 ft | 526 kts | 108° |
| 2026-04-27 02:51 | 58.87043 | -19.16493 | 39184 ft | 526 kts | 108° |
| 2026-04-27 02:52 | 58.84889 | -19.02994 | 39200 ft | 526 kts | 108° |
| 2026-04-27 02:52 | 58.82719 | -18.89508 | 39200 ft | 526 kts | 109° |
| 2026-04-27 02:53 | 58.80534 | -18.76030 | 39200 ft | 526 kts | 109° |
| 2026-04-27 02:53 | 58.78352 | -18.62679 | 39214 ft | 525 kts | 109° |
| 2026-04-27 02:54 | 58.76143 | -18.49261 | 39211 ft | 525 kts | 108° |
| 2026-04-27 02:54 | 58.73921 | -18.35868 | 39222 ft | 525 kts | 108° |
| 2026-04-27 02:55 | 58.71684 | -18.22480 | 39222 ft | 525 kts | 108° |
| 2026-04-27 02:55 | 58.69446 | -18.09192 | 39230 ft | 525 kts | 109° |
| 2026-04-27 02:56 | 58.67181 | -17.95840 | 39235 ft | 525 kts | 109° |
| 2026-04-27 02:56 | 58.64903 | -17.82510 | 39237 ft | 525 kts | 108° |
| 2026-04-27 02:57 | 58.62613 | -17.69208 | 39235 ft | 525 kts | 108° |
| 2026-04-27 02:57 | 58.60306 | -17.55907 | 39241 ft | 525 kts | 108° |
| 2026-04-27 02:58 | 58.57990 | -17.42643 | 39246 ft | 525 kts | 109° |
| 2026-04-27 02:58 | 58.55675 | -17.29486 | 39246 ft | 525 kts | 109° |
| 2026-04-27 02:59 | 58.53330 | -17.16252 | 39257 ft | 525 kts | 109° |
| 2026-04-27 02:59 | 58.50971 | -17.03035 | 39258 ft | 525 kts | 109° |
| 2026-04-27 03:00 | 58.48595 | -16.89810 | 39259 ft | 526 kts | 109° |
| 2026-04-27 03:00 | 58.46221 | -16.76697 | 39272 ft | 525 kts | 109° |
| 2026-04-27 03:01 | 58.43822 | -16.63531 | 39274 ft | 525 kts | 109° |
| 2026-04-27 03:01 | 58.41410 | -16.50390 | 39268 ft | 525 kts | 109° |
| 2026-04-27 03:02 | 58.38985 | -16.37267 | 39266 ft | 525 kts | 109° |
| 2026-04-27 03:02 | 58.36544 | -16.24153 | 39273 ft | 526 kts | 109° |
| 2026-04-27 03:03 | 58.32868 | -16.04566 | 39276 ft | 526 kts | 109° |
| 2026-04-27 03:04 | 58.30391 | -15.91478 | 39279 ft | 526 kts | 109° |
| 2026-04-27 03:04 | 58.27905 | -15.78431 | 39275 ft | 525 kts | 109° |
| 2026-04-27 03:05 | 58.25407 | -15.65412 | 39290 ft | 524 kts | 109° |
| 2026-04-27 03:05 | 58.22913 | -15.52504 | 39283 ft | 525 kts | 109° |
| 2026-04-27 03:06 | 58.20388 | -15.39517 | 39289 ft | 525 kts | 109° |
| 2026-04-27 03:06 | 58.17847 | -15.26534 | 39290 ft | 525 kts | 109° |
| 2026-04-27 03:07 | 58.15296 | -15.13581 | 39290 ft | 525 kts | 109° |
| 2026-04-27 03:07 | 58.12749 | -15.00741 | 39294 ft | 524 kts | 109° |
| 2026-04-27 03:08 | 58.10174 | -14.87839 | 39307 ft | 524 kts | 109° |
| 2026-04-27 03:08 | 58.07589 | -14.74973 | 39297 ft | 523 kts | 109° |
| 2026-04-27 03:09 | 58.04996 | -14.62149 | 39297 ft | 523 kts | 109° |
| 2026-04-27 03:09 | 58.02405 | -14.49414 | 39297 ft | 523 kts | 110° |
| 2026-04-27 03:10 | 57.99785 | -14.36619 | 39303 ft | 523 kts | 110° |
| 2026-04-27 03:10 | 57.97152 | -14.23847 | 39302 ft | 523 kts | 110° |
| 2026-04-27 03:11 | 57.94506 | -14.11091 | 39305 ft | 522 kts | 110° |
| 2026-04-27 03:11 | 57.91852 | -13.98372 | 39307 ft | 522 kts | 110° |
| 2026-04-27 03:12 | 57.89205 | -13.85769 | 39306 ft | 522 kts | 110° |
| 2026-04-27 03:12 | 57.86526 | -13.73088 | 39303 ft | 522 kts | 110° |
| 2026-04-27 03:13 | 57.83836 | -13.60437 | 39309 ft | 522 kts | 110° |
| 2026-04-27 03:13 | 57.81133 | -13.47802 | 39309 ft | 522 kts | 110° |
| 2026-04-27 03:14 | 57.78436 | -13.35272 | 39308 ft | 521 kts | 110° |
| 2026-04-27 03:14 | 57.75716 | -13.22713 | 39311 ft | 520 kts | 110° |
| 2026-04-27 03:15 | 57.72984 | -13.10175 | 39314 ft | 520 kts | 110° |
| 2026-04-27 03:15 | 57.70243 | -12.97667 | 39314 ft | 520 kts | 111° |
| 2026-04-27 03:16 | 57.67486 | -12.85167 | 39314 ft | 520 kts | 111° |
| 2026-04-27 03:16 | 57.64738 | -12.72777 | 39314 ft | 520 kts | 111° |
| 2026-04-27 03:17 | 57.61957 | -12.60315 | 39317 ft | 520 kts | 111° |
| 2026-04-27 03:17 | 57.59167 | -12.47886 | 39317 ft | 520 kts | 111° |
| 2026-04-27 03:18 | 57.56362 | -12.35468 | 39319 ft | 520 kts | 111° |
| 2026-04-27 03:18 | 57.53566 | -12.23159 | 39318 ft | 519 kts | 111° |
| 2026-04-27 03:19 | 57.50740 | -12.10791 | 39320 ft | 519 kts | 111° |
| 2026-04-27 03:19 | 57.47903 | -11.98443 | 39319 ft | 520 kts | 111° |
| 2026-04-27 03:20 | 57.45048 | -11.86088 | 39321 ft | 520 kts | 112° |
| 2026-04-27 03:20 | 57.42219 | -11.73918 | 39322 ft | 520 kts | 112° |
| 2026-04-27 03:21 | 57.39597 | -11.62699 | 39322 ft | 520 kts | 112° |
| 2026-04-27 03:21 | 57.36708 | -11.50409 | 39326 ft | 520 kts | 112° |
| 2026-04-27 03:22 | 57.33807 | -11.38135 | 39339 ft | 520 kts | 112° |
| 2026-04-27 03:22 | 57.30909 | -11.25945 | 39325 ft | 522 kts | 112° |
| 2026-04-27 03:23 | 57.27975 | -11.13666 | 39325 ft | 522 kts | 112° |
| 2026-04-27 03:23 | 57.25026 | -11.01400 | 39325 ft | 522 kts | 112° |
| 2026-04-27 03:24 | 57.22065 | -10.89155 | 39327 ft | 522 kts | 112° |
| 2026-04-27 03:24 | 57.19113 | -10.77014 | 39328 ft | 522 kts | 112° |
| 2026-04-27 03:25 | 57.16127 | -10.64801 | 39327 ft | 523 kts | 112° |
| 2026-04-27 03:25 | 57.13122 | -10.52574 | 39330 ft | 525 kts | 112° |
| 2026-04-27 03:26 | 57.10099 | -10.40348 | 39325 ft | 525 kts | 112° |
| 2026-04-27 03:26 | 57.07086 | -10.28227 | 39325 ft | 525 kts | 112° |
| 2026-04-27 03:27 | 57.04041 | -10.16047 | 39327 ft | 525 kts | 112° |
| 2026-04-27 03:27 | 57.00993 | -10.03879 | 39340 ft | 524 kts | 111° |
| 2026-04-27 03:28 | 56.98694 | -9.91234 | 39316 ft | 522 kts | 103° |
| 2026-04-27 03:28 | 56.96759 | -9.78514 | 39330 ft | 521 kts | 102° |
| 2026-04-27 03:29 | 56.94864 | -9.65697 | 39328 ft | 521 kts | 102° |
| 2026-04-27 03:29 | 56.92903 | -9.52917 | 39325 ft | 522 kts | 106° |
| 2026-04-27 03:30 | 56.89974 | -9.40721 | 39353 ft | 525 kts | 114° |
| 2026-04-27 03:30 | 56.86702 | -9.28857 | 39332 ft | 526 kts | 115° |
| 2026-04-27 03:31 | 56.83333 | -9.16973 | 39331 ft | 527 kts | 115° |
| 2026-04-27 03:31 | 56.79970 | -9.05110 | 39330 ft | 526 kts | 115° |
| 2026-04-27 03:32 | 56.76609 | -8.93247 | 39330 ft | 526 kts | 115° |
| 2026-04-27 03:32 | 56.73271 | -8.81501 | 39330 ft | 525 kts | 115° |
| 2026-04-27 03:33 | 56.69900 | -8.69698 | 39332 ft | 526 kts | 115° |
| 2026-04-27 03:33 | 56.66514 | -8.57904 | 39328 ft | 526 kts | 115° |
| 2026-04-27 03:34 | 56.63114 | -8.46125 | 39331 ft | 526 kts | 115° |
| 2026-04-27 03:34 | 56.59725 | -8.34443 | 39331 ft | 526 kts | 116° |
| 2026-04-27 03:35 | 56.56303 | -8.22708 | 39322 ft | 526 kts | 116° |
| 2026-04-27 03:35 | 56.52873 | -8.11003 | 39351 ft | 525 kts | 116° |
| 2026-04-27 03:36 | 56.49436 | -7.99332 | 39333 ft | 526 kts | 116° |
| 2026-04-27 03:36 | 56.45984 | -7.87669 | 39330 ft | 526 kts | 116° |
| 2026-04-27 03:37 | 56.42521 | -7.76027 | 39333 ft | 526 kts | 116° |
| 2026-04-27 03:37 | 56.39069 | -7.64478 | 39335 ft | 526 kts | 116° |
| 2026-04-27 03:38 | 56.35586 | -7.52885 | 39331 ft | 526 kts | 116° |
| 2026-04-27 03:38 | 56.32090 | -7.41303 | 39336 ft | 525 kts | 116° |
| 2026-04-27 03:39 | 56.28589 | -7.29762 | 39335 ft | 525 kts | 117° |
| 2026-04-27 03:39 | 56.25098 | -7.18312 | 39336 ft | 525 kts | 117° |
| 2026-04-27 03:40 | 56.21521 | -7.06870 | 39333 ft | 525 kts | 117° |
| 2026-04-27 03:40 | 56.18001 | -6.95382 | 39335 ft | 525 kts | 117° |
| 2026-04-27 03:41 | 56.14484 | -6.83884 | 39349 ft | 525 kts | 117° |
| 2026-04-27 03:41 | 56.10970 | -6.72523 | 39327 ft | 525 kts | 117° |
| 2026-04-27 03:42 | 56.07414 | -6.61133 | 39336 ft | 523 kts | 117° |
| 2026-04-27 03:42 | 56.03850 | -6.49780 | 39335 ft | 523 kts | 117° |
| 2026-04-27 03:43 | 56.00272 | -6.38436 | 39335 ft | 523 kts | 117° |
| 2026-04-27 03:43 | 55.96712 | -6.27201 | 39331 ft | 523 kts | 118° |
| 2026-04-27 03:44 | 55.93119 | -6.15913 | 39330 ft | 523 kts | 118° |
| 2026-04-27 03:44 | 55.89514 | -6.04639 | 39328 ft | 523 kts | 118° |
| 2026-04-27 03:45 | 55.85899 | -5.93391 | 39327 ft | 523 kts | 118° |
| 2026-04-27 03:45 | 55.82295 | -5.82228 | 39333 ft | 523 kts | 118° |
| 2026-04-27 03:46 | 55.78661 | -5.71022 | 39340 ft | 523 kts | 118° |
| 2026-04-27 03:46 | 55.75017 | -5.59838 | 39341 ft | 523 kts | 118° |
| 2026-04-27 03:47 | 55.71357 | -5.48656 | 39335 ft | 524 kts | 119° |
| 2026-04-27 03:47 | 55.67707 | -5.37560 | 39334 ft | 525 kts | 119° |
| 2026-04-27 03:48 | 55.64024 | -5.26413 | 39329 ft | 524 kts | 119° |
| 2026-04-27 03:48 | 55.60338 | -5.15309 | 39333 ft | 523 kts | 119° |
| 2026-04-27 03:49 | 55.57267 | -5.06098 | 39328 ft | 523 kts | 119° |
| 2026-04-27 03:49 | 55.53561 | -4.95024 | 39328 ft | 524 kts | 119° |
| 2026-04-27 03:50 | 55.49837 | -4.83949 | 39327 ft | 525 kts | 120° |
| 2026-04-27 03:50 | 55.45496 | -4.71106 | 39328 ft | 525 kts | 120° |
| 2026-04-27 03:51 | 55.42381 | -4.61931 | 39346 ft | 525 kts | 120° |
| 2026-04-27 03:51 | 55.38638 | -4.50950 | 39344 ft | 523 kts | 120° |
| 2026-04-27 03:52 | 55.34891 | -4.40007 | 39341 ft | 523 kts | 120° |
| 2026-04-27 03:52 | 55.31133 | -4.29081 | 39336 ft | 522 kts | 120° |
| 2026-04-27 03:53 | 55.27389 | -4.18245 | 39326 ft | 522 kts | 120° |
| 2026-04-27 03:53 | 55.23613 | -4.07365 | 39324 ft | 522 kts | 121° |
| 2026-04-27 03:54 | 55.19825 | -3.96500 | 39311 ft | 522 kts | 121° |
| 2026-04-27 03:54 | 55.16030 | -3.85663 | 39316 ft | 522 kts | 121° |
| 2026-04-27 03:55 | 55.12229 | -3.74856 | 39316 ft | 521 kts | 121° |
| 2026-04-27 03:55 | 55.08450 | -3.64159 | 39310 ft | 521 kts | 121° |
| 2026-04-27 03:56 | 55.04640 | -3.53421 | 39312 ft | 521 kts | 121° |
| 2026-04-27 03:56 | 55.00819 | -3.42698 | 39308 ft | 521 kts | 121° |
| 2026-04-27 03:57 | 54.96988 | -3.31995 | 39308 ft | 521 kts | 121° |
| 2026-04-27 03:57 | 54.93179 | -3.21398 | 39309 ft | 519 kts | 122° |
| 2026-04-27 03:58 | 54.89344 | -3.10774 | 39314 ft | 519 kts | 122° |
| 2026-04-27 03:58 | 54.85500 | -3.00177 | 39319 ft | 518 kts | 122° |
| 2026-04-27 03:59 | 54.81648 | -2.89600 | 39320 ft | 518 kts | 122° |
| 2026-04-27 03:59 | 54.77787 | -2.79044 | 39323 ft | 518 kts | 122° |
| 2026-04-27 04:00 | 54.73945 | -2.68582 | 39330 ft | 518 kts | 123° |
| 2026-04-27 04:00 | 54.70066 | -2.58064 | 39323 ft | 519 kts | 123° |
| 2026-04-27 04:01 | 54.66175 | -2.47562 | 39317 ft | 519 kts | 123° |
| 2026-04-27 04:01 | 54.62276 | -2.37082 | 39322 ft | 519 kts | 123° |
| 2026-04-27 04:02 | 54.58369 | -2.26624 | 39319 ft | 519 kts | 123° |
| 2026-04-27 04:02 | 54.54481 | -2.16260 | 39319 ft | 519 kts | 123° |
| 2026-04-27 04:03 | 54.50557 | -2.05842 | 39312 ft | 519 kts | 123° |
| 2026-04-27 04:03 | 54.46623 | -1.95445 | 39313 ft | 518 kts | 124° |
| 2026-04-27 04:04 | 54.42717 | -1.85164 | 39298 ft | 517 kts | 124° |
| 2026-04-27 04:04 | 54.38780 | -1.74843 | 39295 ft | 517 kts | 124° |
| 2026-04-27 04:05 | 54.34834 | -1.64542 | 39292 ft | 517 kts | 124° |
| 2026-04-27 04:05 | 54.30880 | -1.54262 | 39290 ft | 516 kts | 124° |
| 2026-04-27 04:06 | 54.26928 | -1.44030 | 39295 ft | 515 kts | 124° |
| 2026-04-27 04:06 | 54.22996 | -1.33892 | 39284 ft | 514 kts | 124° |
| 2026-04-27 04:07 | 54.17065 | -1.18678 | 39293 ft | 512 kts | 124° |
| 2026-04-27 04:07 | 54.13106 | -1.08573 | 39290 ft | 512 kts | 125° |
| 2026-04-27 04:08 | 54.09140 | -0.98490 | 39287 ft | 512 kts | 125° |
| 2026-04-27 04:08 | 54.05178 | -0.88528 | 39284 ft | 511 kts | 127° |
| 2026-04-27 04:09 | 54.00266 | -0.79912 | 39290 ft | 507 kts | 144° |
| 2026-04-27 04:09 | 53.94577 | -0.72881 | 39288 ft | 505 kts | 147° |
| 2026-04-27 04:10 | 53.88769 | -0.66183 | 39284 ft | 505 kts | 148° |
| 2026-04-27 04:10 | 53.82999 | -0.59558 | 39284 ft | 505 kts | 148° |
| 2026-04-27 04:11 | 53.77202 | -0.52858 | 39286 ft | 505 kts | 148° |
| 2026-04-27 04:11 | 53.71410 | -0.46154 | 39285 ft | 504 kts | 148° |
| 2026-04-27 04:12 | 53.65623 | -0.39471 | 39292 ft | 504 kts | 148° |
| 2026-04-27 04:12 | 53.59909 | -0.32772 | 39291 ft | 505 kts | 144° |
| 2026-04-27 04:13 | 53.54981 | -0.24322 | 39293 ft | 508 kts | 130° |
| 2026-04-27 04:13 | 53.50648 | -0.14913 | 39290 ft | 509 kts | 128° |
| 2026-04-27 04:14 | 53.46417 | -0.05372 | 39287 ft | 509 kts | 128° |
| 2026-04-27 04:14 | 53.42198 | 0.04069 | 39284 ft | 509 kts | 129° |
| 2026-04-27 04:15 | 53.37917 | 0.13531 | 39284 ft | 509 kts | 129° |
| 2026-04-27 04:15 | 53.33619 | 0.22963 | 39290 ft | 509 kts | 129° |
| 2026-04-27 04:16 | 53.29312 | 0.32373 | 39290 ft | 509 kts | 129° |
| 2026-04-27 04:16 | 53.25031 | 0.41699 | 39278 ft | 509 kts | 129° |
| 2026-04-27 04:17 | 53.20720 | 0.51069 | 39295 ft | 508 kts | 129° |
| 2026-04-27 04:17 | 53.16398 | 0.60408 | 39295 ft | 509 kts | 129° |
| 2026-04-27 04:18 | 53.12065 | 0.69735 | 39299 ft | 509 kts | 129° |
| 2026-04-27 04:18 | 53.07757 | 0.78979 | 39298 ft | 509 kts | 130° |
| 2026-04-27 04:19 | 53.03412 | 0.88272 | 39299 ft | 509 kts | 130° |
| 2026-04-27 04:19 | 52.99268 | 0.97803 | 39296 ft | 511 kts | 121° |
| 2026-04-27 04:20 | 52.97788 | 1.03154 | 39303 ft | 512 kts | 110° |
| 2026-04-27 04:20 | 52.96830 | 1.08846 | 39308 ft | 512 kts | 104° |
| 2026-04-27 04:20 | 52.95392 | 1.20426 | 39306 ft | 513 kts | 101° |
| 2026-04-27 04:21 | 52.94118 | 1.31981 | 39311 ft | 513 kts | 101° |
| 2026-04-27 04:21 | 52.92802 | 1.43607 | 39311 ft | 513 kts | 101° |
| 2026-04-27 04:22 | 52.91442 | 1.55194 | 38937 ft | 510 kts | 102° |
| 2026-04-27 04:22 | 52.90754 | 1.60955 | 38169 ft | 510 kts | 102° |
| 2026-04-27 04:22 | 52.90061 | 1.66728 | 37340 ft | 511 kts | 102° |
| 2026-04-27 04:23 | 52.89371 | 1.72438 | 36523 ft | 513 kts | 103° |
| 2026-04-27 04:23 | 52.88667 | 1.78241 | 35721 ft | 516 kts | 103° |
| 2026-04-27 04:23 | 52.87959 | 1.84065 | 34913 ft | 518 kts | 103° |
| 2026-04-27 04:23 | 52.87243 | 1.89922 | 34083 ft | 520 kts | 103° |
| 2026-04-27 04:24 | 52.86523 | 1.95794 | 33205 ft | 521 kts | 103° |
| 2026-04-27 04:24 | 52.85799 | 2.01665 | 32338 ft | 522 kts | 103° |
| 2026-04-27 04:24 | 52.85070 | 2.07558 | 31412 ft | 524 kts | 103° |
| 2026-04-27 04:24 | 52.84335 | 2.13472 | 30520 ft | 526 kts | 103° |
| 2026-04-27 04:25 | 52.83604 | 2.19326 | 29580 ft | 527 kts | 103° |
| 2026-04-27 04:25 | 52.82863 | 2.25244 | 28837 ft | 523 kts | 103° |
| 2026-04-27 04:25 | 52.82127 | 2.31095 | 28171 ft | 518 kts | 103° |
| 2026-04-27 04:25 | 52.81395 | 2.36898 | 27525 ft | 513 kts | 103° |
| 2026-04-27 04:26 | 52.80669 | 2.42623 | 26923 ft | 507 kts | 103° |
| 2026-04-27 04:26 | 52.79947 | 2.48296 | 26331 ft | 501 kts | 103° |
| 2026-04-27 04:26 | 52.79233 | 2.53899 | 25730 ft | 496 kts | 103° |
| 2026-04-27 04:26 | 52.78521 | 2.59455 | 25167 ft | 491 kts | 103° |
| 2026-04-27 04:27 | 52.77821 | 2.64873 | 24600 ft | 486 kts | 103° |
| 2026-04-27 04:27 | 52.77117 | 2.70300 | 24030 ft | 481 kts | 103° |
| 2026-04-27 04:27 | 52.76417 | 2.75672 | 23374 ft | 476 kts | 103° |
| 2026-04-27 04:27 | 52.75723 | 2.80989 | 22688 ft | 472 kts | 103° |
| 2026-04-27 04:28 | 52.75035 | 2.86253 | 22025 ft | 467 kts | 103° |
| 2026-04-27 04:28 | 52.74349 | 2.91461 | 21382 ft | 461 kts | 103° |
| 2026-04-27 04:28 | 52.73648 | 2.96595 | 20747 ft | 456 kts | 105° |
| 2026-04-27 04:28 | 52.72551 | 3.01462 | 20102 ft | 450 kts | 117° |
| 2026-04-27 04:29 | 52.71059 | 3.05958 | 19524 ft | 444 kts | 121° |
| 2026-04-27 04:29 | 52.69532 | 3.10284 | 18904 ft | 440 kts | 121° |
| 2026-04-27 04:29 | 52.67995 | 3.14621 | 18246 ft | 436 kts | 121° |
| 2026-04-27 04:29 | 52.66476 | 3.18913 | 17540 ft | 432 kts | 121° |
| 2026-04-27 04:30 | 52.64973 | 3.23165 | 16873 ft | 427 kts | 121° |
| 2026-04-27 04:30 | 52.63485 | 3.27375 | 16225 ft | 423 kts | 121° |
| 2026-04-27 04:30 | 52.62016 | 3.31530 | 15610 ft | 419 kts | 121° |
| 2026-04-27 04:30 | 52.60556 | 3.35653 | 15027 ft | 415 kts | 121° |
| 2026-04-27 04:31 | 52.59148 | 3.39783 | 14520 ft | 413 kts | 117° |
| 2026-04-27 04:31 | 52.58223 | 3.44175 | 14006 ft | 411 kts | 103° |
| 2026-04-27 04:31 | 52.57685 | 3.48764 | 13454 ft | 408 kts | 100° |
| 2026-04-27 04:31 | 52.57213 | 3.53341 | 12947 ft | 403 kts | 99° |
| 2026-04-27 04:32 | 52.56747 | 3.57864 | 12457 ft | 400 kts | 99° |
| 2026-04-27 04:32 | 52.56278 | 3.62345 | 11968 ft | 396 kts | 99° |
| 2026-04-27 04:32 | 52.55811 | 3.66749 | 11491 ft | 386 kts | 99° |
| 2026-04-27 04:32 | 52.55351 | 3.71047 | 11023 ft | 378 kts | 100° |
| 2026-04-27 04:33 | 52.54897 | 3.75254 | 10574 ft | 370 kts | 100° |
| 2026-04-27 04:33 | 52.54461 | 3.79284 | 10351 ft | 355 kts | 100° |
| 2026-04-27 04:33 | 52.54038 | 3.83172 | 10313 ft | 336 kts | 100° |
| 2026-04-27 04:33 | 52.53637 | 3.86841 | 10304 ft | 317 kts | 100° |
| 2026-04-27 04:34 | 52.53258 | 3.90307 | 10312 ft | 301 kts | 100° |
| 2026-04-27 04:34 | 52.52891 | 3.93650 | 10310 ft | 297 kts | 100° |
| 2026-04-27 04:34 | 52.52443 | 3.96967 | 10311 ft | 298 kts | 107° |
| 2026-04-27 04:34 | 52.51745 | 4.00173 | 10221 ft | 297 kts | 111° |
| 2026-04-27 04:35 | 52.50994 | 4.03262 | 9823 ft | 294 kts | 112° |
| 2026-04-27 04:35 | 52.50227 | 4.06363 | 9484 ft | 292 kts | 112° |
| 2026-04-27 04:35 | 52.49465 | 4.09454 | 9215 ft | 293 kts | 112° |
| 2026-04-27 04:35 | 52.48704 | 4.12550 | 8947 ft | 293 kts | 112° |
| 2026-04-27 04:36 | 52.47944 | 4.15646 | 8669 ft | 291 kts | 112° |
| 2026-04-27 04:36 | 52.47191 | 4.18713 | 8382 ft | 289 kts | 112° |
| 2026-04-27 04:36 | 52.46443 | 4.21758 | 8103 ft | 287 kts | 112° |
| 2026-04-27 04:36 | 52.45700 | 4.24778 | 7824 ft | 285 kts | 112° |
| 2026-04-27 04:37 | 52.44958 | 4.27795 | 7552 ft | 285 kts | 112° |
| 2026-04-27 04:37 | 52.44229 | 4.30752 | 7286 ft | 283 kts | 112° |
| 2026-04-27 04:37 | 52.43594 | 4.33776 | 7016 ft | 279 kts | 102° |
| 2026-04-27 04:37 | 52.43579 | 4.36919 | 6618 ft | 276 kts | 77° |
| 2026-04-27 04:38 | 52.44393 | 4.39709 | 6208 ft | 272 kts | 50° |
| 2026-04-27 04:38 | 52.45833 | 4.41656 | 5774 ft | 269 kts | 28° |
| 2026-04-27 04:38 | 52.47498 | 4.43003 | 5520 ft | 265 kts | 24° |
| 2026-04-27 04:38 | 52.49152 | 4.44239 | 5471 ft | 254 kts | 23° |
| 2026-04-27 04:39 | 52.50705 | 4.45406 | 5486 ft | 237 kts | 24° |
| 2026-04-27 04:39 | 52.52166 | 4.46516 | 5490 ft | 233 kts | 24° |
| 2026-04-27 04:39 | 52.53631 | 4.47642 | 5490 ft | 233 kts | 24° |
| 2026-04-27 04:39 | 52.55091 | 4.48770 | 5485 ft | 232 kts | 24° |
| 2026-04-27 04:40 | 52.56546 | 4.49932 | 5486 ft | 233 kts | 28° |
| 2026-04-27 04:40 | 52.57784 | 4.51633 | 5471 ft | 235 kts | 52° |
| 2026-04-27 04:40 | 52.58415 | 4.54101 | 5265 ft | 239 kts | 79° |
| 2026-04-27 04:40 | 52.58495 | 4.56817 | 4987 ft | 236 kts | 89° |
| 2026-04-27 04:41 | 52.58465 | 4.59507 | 4665 ft | 234 kts | 89° |
| 2026-04-27 04:41 | 52.58429 | 4.62175 | 4330 ft | 234 kts | 90° |
| 2026-04-27 04:41 | 52.58134 | 4.64763 | 3958 ft | 236 kts | 111° |
| 2026-04-27 04:41 | 52.57217 | 4.67001 | 3653 ft | 236 kts | 129° |
| 2026-04-27 04:42 | 52.56126 | 4.68990 | 3426 ft | 234 kts | 131° |
| 2026-04-27 04:42 | 52.55014 | 4.70923 | 3378 ft | 227 kts | 135° |
| 2026-04-27 04:42 | 52.53706 | 4.72189 | 3401 ft | 216 kts | 159° |
| 2026-04-27 04:42 | 52.52247 | 4.72731 | 3312 ft | 216 kts | 177° |
| 2026-04-27 04:43 | 52.50781 | 4.72541 | 3029 ft | 213 kts | 188° |
| 2026-04-27 04:43 | 52.49323 | 4.72329 | 2720 ft | 209 kts | 182° |
| 2026-04-27 04:43 | 52.47883 | 4.72270 | 2408 ft | 205 kts | 183° |
| 2026-04-27 04:43 | 52.46480 | 4.72129 | 2128 ft | 200 kts | 184° |
| 2026-04-27 04:44 | 52.45107 | 4.71997 | 1845 ft | 195 kts | 182° |
| 2026-04-27 04:44 | 52.43787 | 4.71882 | 1573 ft | 185 kts | 181° |
| 2026-04-27 04:44 | 52.42540 | 4.71766 | 1332 ft | 173 kts | 180° |
| 2026-04-27 04:44 | 52.41382 | 4.71663 | 1102 ft | 161 kts | 179° |
| 2026-04-27 04:45 | 52.40307 | 4.71561 | 865 ft | 149 kts | 180° |
| 2026-04-27 04:45 | 52.39327 | 4.71470 | 697 ft | 138 kts | 179° |
| 2026-04-27 04:45 | 52.38387 | 4.71399 | 535 ft | 134 kts | 180° |
| 2026-04-27 04:45 | 52.37440 | 4.71301 | 338 ft | 137 kts | 182° |
| 2026-04-27 04:46 | 52.36489 | 4.71219 | 158 ft | 137 kts | 183° |
| 2026-04-27 04:46 | 52.35539 | 4.71136 | 11 ft | 134 kts | 183° |
| 2026-04-27 04:46 | 52.34691 | 4.71059 | 4 ft | 95 kts | 182° |
| 2026-04-27 04:46 | 52.34280 | 4.71017 | 1 ft | 49 kts | 182° |
| 2026-04-27 04:47 | 52.33964 | 4.70995 | 5 ft | 39 kts | 176° |
| 2026-04-27 04:47 | 52.33726 | 4.71111 | 5 ft | 28 kts | 153° |
| 2026-04-27 04:47 | 52.33628 | 4.71189 | 3 ft | 10 kts | 158° |
| 2026-04-27 04:47 | 52.33557 | 4.71214 | 4 ft | 11 kts | 172° |
| 2026-04-27 04:48 | 52.33474 | 4.71219 | 4 ft | 13 kts | 179° |
| 2026-04-27 04:48 | 52.33367 | 4.71214 | 2 ft | 18 kts | 182° |
| 2026-04-27 04:48 | 52.33241 | 4.71245 | 4 ft | 18 kts | 148° |
| 2026-04-27 04:48 | 52.33150 | 4.71389 | 5 ft | 19 kts | 132° |
| 2026-04-27 04:49 | 52.33058 | 4.71563 | 6 ft | 21 kts | 130° |
| 2026-04-27 04:49 | 52.32992 | 4.71760 | 4 ft | 20 kts | 95° |
| 2026-04-27 04:49 | 52.32960 | 4.71988 | 3 ft | 21 kts | 124° |
| 2026-04-27 04:49 | 52.32863 | 4.72186 | 4 ft | 23 kts | 131° |
| 2026-04-27 04:50 | 52.32755 | 4.72379 | 6 ft | 24 kts | 132° |
| 2026-04-27 04:50 | 52.32637 | 4.72579 | 5 ft | 25 kts | 137° |
| 2026-04-27 04:50 | 52.32498 | 4.72783 | 3 ft | 28 kts | 139° |
| 2026-04-27 04:50 | 52.32347 | 4.72993 | 3 ft | 29 kts | 140° |
| 2026-04-27 04:51 | 52.32189 | 4.73214 | 5 ft | 30 kts | 139° |
| 2026-04-27 04:51 | 52.32069 | 4.73422 | 8 ft | 22 kts | 114° |
| 2026-04-27 04:51 | 52.32051 | 4.73664 | 7 ft | 23 kts | 94° |
| 2026-04-27 04:51 | 52.32039 | 4.73940 | 3 ft | 27 kts | 94° |
| 2026-04-27 04:52 | 52.32002 | 4.74173 | 1 ft | 17 kts | 150° |
| 2026-04-27 04:52 | 52.31885 | 4.74181 | 1 ft | 18 kts | 182° |
| 2026-04-27 04:52 | 52.31756 | 4.74170 | 4 ft | 18 kts | 183° |
| 2026-04-27 04:52 | 52.31628 | 4.74158 | 6 ft | 19 kts | 183° |
| 2026-04-27 04:53 | 52.31483 | 4.74146 | 4 ft | 20 kts | 183° |
| 2026-04-27 04:53 | 52.31397 | 4.74209 | 4 ft | 14 kts | 111° |
| 2026-04-27 04:53 | 52.31392 | 4.74371 | 4 ft | 15 kts | 88° |
| 2026-04-27 04:53 | 52.31398 | 4.74558 | 4 ft | 18 kts | 86° |
| 2026-04-27 04:54 | 52.31406 | 4.74770 | 4 ft | 20 kts | 87° |
| 2026-04-27 04:54 | 52.31413 | 4.75007 | 4 ft | 22 kts | 88° |
| 2026-04-27 04:54 | 52.31420 | 4.75265 | 4 ft | 24 kts | 87° |
| 2026-04-27 04:54 | 52.31430 | 4.75544 | 4 ft | 25 kts | 85° |
| 2026-04-27 04:55 | 52.31444 | 4.75841 | 4 ft | 27 kts | 86° |
| 2026-04-27 04:55 | 52.31455 | 4.76157 | 4 ft | 28 kts | 86° |
| 2026-04-27 04:55 | 52.31463 | 4.76386 | 4 ft | 12 kts | 87° |
| 2026-04-27 04:55 | 52.31437 | 4.76524 | 4 ft | 14 kts | 124° |
| 2026-04-27 04:56 | 52.31388 | 4.76559 | 4 ft | 4 kts | 182° |
| 2026-04-27 04:56 | 52.31355 | 4.76536 | 4 ft | 6 kts | 207° |
| 2026-04-27 04:56 | 52.31307 | 4.76495 | 4 ft | 9 kts | 208° |
| 2026-04-27 04:56 | 52.31291 | 4.76480 | 4 ft | 2 kts | 210° |
| 2026-04-27 04:57 | 52.31267 | 4.76462 | 4 ft | 6 kts | 198° |
| 2026-04-27 04:57 | 52.31258 | 4.76462 | 4 ft | 3 kts | 176° |
| 2026-04-27 04:57 | 52.31239 | 4.76489 | 4 ft | 5 kts | 133° |
| 2026-04-27 04:57 | 52.31218 | 4.76534 | 4 ft | 5 kts | 125° |
| 2026-04-27 04:58 | 52.31214 | 4.76545 | 4 ft | 0 kts | 125° |
| 2026-04-27 04:58 | 52.31209 | 4.76555 | 4 ft | 2 kts | 125° |
| 2026-04-27 04:58 | 52.31209 | 4.76556 | 4 ft | 0 kts | 125° |
| 2026-04-27 04:58 | 52.31205 | 4.76564 | 4 ft | 0 kts | 125° |